<?xml version="1.0" encoding="UTF-8" standalone="no" ?>
<gpx xmlns="http://www.topografix.com/GPX/1/1" xmlns:xsi="http://www.w3.org/2001/XMLSchema-instance" xsi:schemaLocation="http://www.topografix.com/GPX/1/1 http://www.topografix.com/GPX/1/1/gpx.xsd" version="1.1" creator="VisuGPX - https://www.visugpx.com">
  <metadata>
    <name>2017-03-30 - Le Croisic, Batz-sur-Mer</name>
    <desc><![CDATA[2017-03-30 - Le Croisic, Batz-sur-Mer - Isabelle & Denis]]></desc>
  </metadata>
  <trk>
    <name><![CDATA[MARS-30-17 15:39:55]]></name>
    <trkseg>
      <trkpt lat="47.29002" lon="-2.50747">
        <ele>19.36</ele>
        <time>2017-03-30T09:20:43Z</time>
      </trkpt>
      <trkpt lat="47.29015" lon="-2.50749">
        <ele>17.92</ele>
        <time>2017-03-30T09:25:28Z</time>
      </trkpt>
      <trkpt lat="47.29027" lon="-2.50749">
        <ele>16.96</ele>
        <time>2017-03-30T09:25:38Z</time>
      </trkpt>
      <trkpt lat="47.29036" lon="-2.5076">
        <ele>17.92</ele>
        <time>2017-03-30T09:25:46Z</time>
      </trkpt>
      <trkpt lat="47.29043" lon="-2.5077">
        <ele>17.44</ele>
        <time>2017-03-30T09:25:56Z</time>
      </trkpt>
      <trkpt lat="47.29046" lon="-2.5077">
        <ele>16.48</ele>
        <time>2017-03-30T09:26:08Z</time>
      </trkpt>
      <trkpt lat="47.29044" lon="-2.50754">
        <ele>17.92</ele>
        <time>2017-03-30T09:26:19Z</time>
      </trkpt>
      <trkpt lat="47.29046" lon="-2.50738">
        <ele>19.36</ele>
        <time>2017-03-30T09:26:28Z</time>
      </trkpt>
      <trkpt lat="47.29058" lon="-2.50738">
        <ele>20.32</ele>
        <time>2017-03-30T09:26:44Z</time>
      </trkpt>
      <trkpt lat="47.29068" lon="-2.50747">
        <ele>25.61</ele>
        <time>2017-03-30T09:27:00Z</time>
      </trkpt>
      <trkpt lat="47.29078" lon="-2.50744">
        <ele>30.42</ele>
        <time>2017-03-30T09:27:23Z</time>
      </trkpt>
      <trkpt lat="47.29084" lon="-2.50734">
        <ele>31.38</ele>
        <time>2017-03-30T09:27:33Z</time>
      </trkpt>
      <trkpt lat="47.29093" lon="-2.50727">
        <ele>29.94</ele>
        <time>2017-03-30T09:27:45Z</time>
      </trkpt>
      <trkpt lat="47.29095" lon="-2.50737">
        <ele>30.9</ele>
        <time>2017-03-30T09:28:02Z</time>
      </trkpt>
      <trkpt lat="47.29099" lon="-2.50748">
        <ele>29.94</ele>
        <time>2017-03-30T09:28:12Z</time>
      </trkpt>
      <trkpt lat="47.29093" lon="-2.50759">
        <ele>32.34</ele>
        <time>2017-03-30T09:28:23Z</time>
      </trkpt>
      <trkpt lat="47.29084" lon="-2.50756">
        <ele>33.78</ele>
        <time>2017-03-30T09:28:33Z</time>
      </trkpt>
      <trkpt lat="47.29088" lon="-2.5074">
        <ele>32.82</ele>
        <time>2017-03-30T09:28:44Z</time>
      </trkpt>
      <trkpt lat="47.29096" lon="-2.50745">
        <ele>35.71</ele>
        <time>2017-03-30T09:28:57Z</time>
      </trkpt>
      <trkpt lat="47.29091" lon="-2.50756">
        <ele>33.78</ele>
        <time>2017-03-30T09:29:08Z</time>
      </trkpt>
      <trkpt lat="47.29084" lon="-2.5075">
        <ele>32.34</ele>
        <time>2017-03-30T09:29:22Z</time>
      </trkpt>
      <trkpt lat="47.29092" lon="-2.50752">
        <ele>36.19</ele>
        <time>2017-03-30T09:30:37Z</time>
      </trkpt>
      <trkpt lat="47.2909" lon="-2.50746">
        <ele>33.78</ele>
        <time>2017-03-30T09:33:03Z</time>
      </trkpt>
      <trkpt lat="47.29092" lon="-2.50756">
        <ele>32.34</ele>
        <time>2017-03-30T09:33:19Z</time>
      </trkpt>
      <trkpt lat="47.29095" lon="-2.50743">
        <ele>32.34</ele>
        <time>2017-03-30T09:33:31Z</time>
      </trkpt>
      <trkpt lat="47.29087" lon="-2.50742">
        <ele>30.42</ele>
        <time>2017-03-30T09:33:42Z</time>
      </trkpt>
      <trkpt lat="47.29087" lon="-2.50756">
        <ele>29.94</ele>
        <time>2017-03-30T09:33:52Z</time>
      </trkpt>
      <trkpt lat="47.29096" lon="-2.5076">
        <ele>30.42</ele>
        <time>2017-03-30T09:34:03Z</time>
      </trkpt>
      <trkpt lat="47.29099" lon="-2.50745">
        <ele>30.42</ele>
        <time>2017-03-30T09:34:13Z</time>
      </trkpt>
      <trkpt lat="47.29093" lon="-2.50734">
        <ele>30.9</ele>
        <time>2017-03-30T09:34:24Z</time>
      </trkpt>
      <trkpt lat="47.29102" lon="-2.50732">
        <ele>27.53</ele>
        <time>2017-03-30T09:34:34Z</time>
      </trkpt>
      <trkpt lat="47.29108" lon="-2.50744">
        <ele>24.65</ele>
        <time>2017-03-30T09:34:43Z</time>
      </trkpt>
      <trkpt lat="47.2911" lon="-2.50758">
        <ele>26.09</ele>
        <time>2017-03-30T09:34:52Z</time>
      </trkpt>
      <trkpt lat="47.29113" lon="-2.5077">
        <ele>22.25</ele>
        <time>2017-03-30T09:35:04Z</time>
      </trkpt>
      <trkpt lat="47.29117" lon="-2.50772">
        <ele>23.21</ele>
        <time>2017-03-30T09:35:24Z</time>
      </trkpt>
      <trkpt lat="47.29111" lon="-2.50772">
        <ele>22.25</ele>
        <time>2017-03-30T09:35:47Z</time>
      </trkpt>
      <trkpt lat="47.29119" lon="-2.50771">
        <ele>19.84</ele>
        <time>2017-03-30T09:36:08Z</time>
      </trkpt>
      <trkpt lat="47.29127" lon="-2.50777">
        <ele>22.73</ele>
        <time>2017-03-30T09:36:21Z</time>
      </trkpt>
      <trkpt lat="47.29135" lon="-2.50782">
        <ele>21.29</ele>
        <time>2017-03-30T09:36:30Z</time>
      </trkpt>
      <trkpt lat="47.29144" lon="-2.50788">
        <ele>20.32</ele>
        <time>2017-03-30T09:36:39Z</time>
      </trkpt>
      <trkpt lat="47.29154" lon="-2.50794">
        <ele>20.32</ele>
        <time>2017-03-30T09:36:48Z</time>
      </trkpt>
      <trkpt lat="47.29164" lon="-2.50801">
        <ele>17.92</ele>
        <time>2017-03-30T09:36:57Z</time>
      </trkpt>
      <trkpt lat="47.2917" lon="-2.50809">
        <ele>17.44</ele>
        <time>2017-03-30T09:37:05Z</time>
      </trkpt>
      <trkpt lat="47.29179" lon="-2.50813">
        <ele>16</ele>
        <time>2017-03-30T09:37:14Z</time>
      </trkpt>
      <trkpt lat="47.29186" lon="-2.50819">
        <ele>16</ele>
        <time>2017-03-30T09:37:23Z</time>
      </trkpt>
      <trkpt lat="47.29198" lon="-2.50825">
        <ele>15.52</ele>
        <time>2017-03-30T09:37:32Z</time>
      </trkpt>
      <trkpt lat="47.29209" lon="-2.50827">
        <ele>17.44</ele>
        <time>2017-03-30T09:37:42Z</time>
      </trkpt>
      <trkpt lat="47.29219" lon="-2.50829">
        <ele>14.08</ele>
        <time>2017-03-30T09:37:51Z</time>
      </trkpt>
      <trkpt lat="47.29226" lon="-2.50838">
        <ele>14.56</ele>
        <time>2017-03-30T09:37:59Z</time>
      </trkpt>
      <trkpt lat="47.29234" lon="-2.5084">
        <ele>14.08</ele>
        <time>2017-03-30T09:38:08Z</time>
      </trkpt>
      <trkpt lat="47.29242" lon="-2.50836">
        <ele>12.63</ele>
        <time>2017-03-30T09:38:17Z</time>
      </trkpt>
      <trkpt lat="47.29252" lon="-2.50844">
        <ele>11.67</ele>
        <time>2017-03-30T09:38:26Z</time>
      </trkpt>
      <trkpt lat="47.29262" lon="-2.50856">
        <ele>13.12</ele>
        <time>2017-03-30T09:38:36Z</time>
      </trkpt>
      <trkpt lat="47.2927" lon="-2.50862">
        <ele>11.19</ele>
        <time>2017-03-30T09:38:46Z</time>
      </trkpt>
      <trkpt lat="47.2928" lon="-2.50871">
        <ele>11.19</ele>
        <time>2017-03-30T09:38:55Z</time>
      </trkpt>
      <trkpt lat="47.29287" lon="-2.50877">
        <ele>12.15</ele>
        <time>2017-03-30T09:39:04Z</time>
      </trkpt>
      <trkpt lat="47.29295" lon="-2.50886">
        <ele>12.15</ele>
        <time>2017-03-30T09:39:14Z</time>
      </trkpt>
      <trkpt lat="47.29305" lon="-2.5089">
        <ele>10.23</ele>
        <time>2017-03-30T09:39:25Z</time>
      </trkpt>
      <trkpt lat="47.29316" lon="-2.50897">
        <ele>11.19</ele>
        <time>2017-03-30T09:39:34Z</time>
      </trkpt>
      <trkpt lat="47.29325" lon="-2.50904">
        <ele>11.67</ele>
        <time>2017-03-30T09:39:44Z</time>
      </trkpt>
      <trkpt lat="47.29334" lon="-2.50911">
        <ele>11.19</ele>
        <time>2017-03-30T09:39:54Z</time>
      </trkpt>
      <trkpt lat="47.29344" lon="-2.50918">
        <ele>11.67</ele>
        <time>2017-03-30T09:40:12Z</time>
      </trkpt>
      <trkpt lat="47.2935" lon="-2.50928">
        <ele>12.63</ele>
        <time>2017-03-30T09:40:25Z</time>
      </trkpt>
      <trkpt lat="47.29353" lon="-2.50943">
        <ele>12.15</ele>
        <time>2017-03-30T09:40:35Z</time>
      </trkpt>
      <trkpt lat="47.29358" lon="-2.50958">
        <ele>11.67</ele>
        <time>2017-03-30T09:40:47Z</time>
      </trkpt>
      <trkpt lat="47.29366" lon="-2.5097">
        <ele>10.23</ele>
        <time>2017-03-30T09:40:58Z</time>
      </trkpt>
      <trkpt lat="47.29369" lon="-2.50974">
        <ele>10.71</ele>
        <time>2017-03-30T09:41:13Z</time>
      </trkpt>
      <trkpt lat="47.2938" lon="-2.50986">
        <ele>11.67</ele>
        <time>2017-03-30T09:41:30Z</time>
      </trkpt>
      <trkpt lat="47.29389" lon="-2.50994">
        <ele>10.23</ele>
        <time>2017-03-30T09:41:40Z</time>
      </trkpt>
      <trkpt lat="47.29395" lon="-2.51004">
        <ele>9.75</ele>
        <time>2017-03-30T09:41:50Z</time>
      </trkpt>
      <trkpt lat="47.29402" lon="-2.51015">
        <ele>11.19</ele>
        <time>2017-03-30T09:42:01Z</time>
      </trkpt>
      <trkpt lat="47.29405" lon="-2.51012">
        <ele>11.19</ele>
        <time>2017-03-30T09:42:47Z</time>
      </trkpt>
      <trkpt lat="47.29414" lon="-2.51022">
        <ele>9.27</ele>
        <time>2017-03-30T09:45:20Z</time>
      </trkpt>
      <trkpt lat="47.29423" lon="-2.51032">
        <ele>10.71</ele>
        <time>2017-03-30T09:45:32Z</time>
      </trkpt>
      <trkpt lat="47.29429" lon="-2.51047">
        <ele>9.75</ele>
        <time>2017-03-30T09:45:43Z</time>
      </trkpt>
      <trkpt lat="47.29433" lon="-2.5106">
        <ele>9.75</ele>
        <time>2017-03-30T09:45:54Z</time>
      </trkpt>
      <trkpt lat="47.29438" lon="-2.51072">
        <ele>9.27</ele>
        <time>2017-03-30T09:46:09Z</time>
      </trkpt>
      <trkpt lat="47.29445" lon="-2.51082">
        <ele>8.79</ele>
        <time>2017-03-30T09:46:19Z</time>
      </trkpt>
      <trkpt lat="47.29452" lon="-2.51093">
        <ele>8.79</ele>
        <time>2017-03-30T09:46:29Z</time>
      </trkpt>
      <trkpt lat="47.29459" lon="-2.51105">
        <ele>10.71</ele>
        <time>2017-03-30T09:46:40Z</time>
      </trkpt>
      <trkpt lat="47.29466" lon="-2.51115">
        <ele>9.75</ele>
        <time>2017-03-30T09:46:52Z</time>
      </trkpt>
      <trkpt lat="47.29475" lon="-2.51121">
        <ele>7.83</ele>
        <time>2017-03-30T09:47:03Z</time>
      </trkpt>
      <trkpt lat="47.29484" lon="-2.51124">
        <ele>10.23</ele>
        <time>2017-03-30T09:47:15Z</time>
      </trkpt>
      <trkpt lat="47.29492" lon="-2.51132">
        <ele>11.19</ele>
        <time>2017-03-30T09:47:25Z</time>
      </trkpt>
      <trkpt lat="47.29499" lon="-2.51144">
        <ele>9.75</ele>
        <time>2017-03-30T09:47:36Z</time>
      </trkpt>
      <trkpt lat="47.29503" lon="-2.51157">
        <ele>10.23</ele>
        <time>2017-03-30T09:47:58Z</time>
      </trkpt>
      <trkpt lat="47.29506" lon="-2.51173">
        <ele>9.27</ele>
        <time>2017-03-30T09:48:08Z</time>
      </trkpt>
      <trkpt lat="47.29509" lon="-2.51187">
        <ele>8.79</ele>
        <time>2017-03-30T09:48:18Z</time>
      </trkpt>
      <trkpt lat="47.29513" lon="-2.512">
        <ele>7.83</ele>
        <time>2017-03-30T09:48:29Z</time>
      </trkpt>
      <trkpt lat="47.29518" lon="-2.51215">
        <ele>8.31</ele>
        <time>2017-03-30T09:48:50Z</time>
      </trkpt>
      <trkpt lat="47.29519" lon="-2.5123">
        <ele>9.27</ele>
        <time>2017-03-30T09:49:02Z</time>
      </trkpt>
      <trkpt lat="47.29522" lon="-2.51244">
        <ele>7.83</ele>
        <time>2017-03-30T09:49:13Z</time>
      </trkpt>
      <trkpt lat="47.29524" lon="-2.51259">
        <ele>10.71</ele>
        <time>2017-03-30T09:49:24Z</time>
      </trkpt>
      <trkpt lat="47.29525" lon="-2.51274">
        <ele>9.27</ele>
        <time>2017-03-30T09:49:36Z</time>
      </trkpt>
      <trkpt lat="47.2953" lon="-2.51289">
        <ele>9.27</ele>
        <time>2017-03-30T09:49:50Z</time>
      </trkpt>
      <trkpt lat="47.29525" lon="-2.51296">
        <ele>7.83</ele>
        <time>2017-03-30T09:50:16Z</time>
      </trkpt>
      <trkpt lat="47.29524" lon="-2.51295">
        <ele>8.31</ele>
        <time>2017-03-30T09:51:43Z</time>
      </trkpt>
      <trkpt lat="47.29519" lon="-2.513">
        <ele>8.79</ele>
        <time>2017-03-30T09:52:08Z</time>
      </trkpt>
      <trkpt lat="47.29519" lon="-2.51299">
        <ele>8.79</ele>
        <time>2017-03-30T09:52:28Z</time>
      </trkpt>
      <trkpt lat="47.29527" lon="-2.51289">
        <ele>8.31</ele>
        <time>2017-03-30T09:52:42Z</time>
      </trkpt>
      <trkpt lat="47.29525" lon="-2.51289">
        <ele>7.83</ele>
        <time>2017-03-30T09:54:04Z</time>
      </trkpt>
      <trkpt lat="47.29524" lon="-2.5129">
        <ele>8.31</ele>
        <time>2017-03-30T09:54:38Z</time>
      </trkpt>
      <trkpt lat="47.29516" lon="-2.51297">
        <ele>7.83</ele>
        <time>2017-03-30T09:54:47Z</time>
      </trkpt>
      <trkpt lat="47.29515" lon="-2.51298">
        <ele>8.31</ele>
        <time>2017-03-30T09:55:10Z</time>
      </trkpt>
      <trkpt lat="47.29515" lon="-2.51298">
        <ele>7.83</ele>
        <time>2017-03-30T09:56:02Z</time>
      </trkpt>
      <trkpt lat="47.29512" lon="-2.51299">
        <ele>7.83</ele>
        <time>2017-03-30T09:56:27Z</time>
      </trkpt>
      <trkpt lat="47.29508" lon="-2.51299">
        <ele>7.83</ele>
        <time>2017-03-30T09:56:56Z</time>
      </trkpt>
      <trkpt lat="47.29508" lon="-2.51299">
        <ele>7.83</ele>
        <time>2017-03-30T09:57:42Z</time>
      </trkpt>
      <trkpt lat="47.29509" lon="-2.51299">
        <ele>7.83</ele>
        <time>2017-03-30T09:57:59Z</time>
      </trkpt>
      <trkpt lat="47.29512" lon="-2.51297">
        <ele>7.83</ele>
        <time>2017-03-30T09:58:26Z</time>
      </trkpt>
      <trkpt lat="47.29532" lon="-2.51299">
        <ele>7.35</ele>
        <time>2017-03-30T09:58:42Z</time>
      </trkpt>
      <trkpt lat="47.29539" lon="-2.5131">
        <ele>7.35</ele>
        <time>2017-03-30T09:59:51Z</time>
      </trkpt>
      <trkpt lat="47.29548" lon="-2.51316">
        <ele>7.35</ele>
        <time>2017-03-30T10:00:04Z</time>
      </trkpt>
      <trkpt lat="47.29558" lon="-2.5132">
        <ele>4.94</ele>
        <time>2017-03-30T10:00:15Z</time>
      </trkpt>
      <trkpt lat="47.29569" lon="-2.51322">
        <ele>8.31</ele>
        <time>2017-03-30T10:00:23Z</time>
      </trkpt>
      <trkpt lat="47.2958" lon="-2.51328">
        <ele>5.91</ele>
        <time>2017-03-30T10:00:30Z</time>
      </trkpt>
      <trkpt lat="47.2959" lon="-2.51333">
        <ele>5.42</ele>
        <time>2017-03-30T10:00:40Z</time>
      </trkpt>
      <trkpt lat="47.29599" lon="-2.5134">
        <ele>7.35</ele>
        <time>2017-03-30T10:00:49Z</time>
      </trkpt>
      <trkpt lat="47.29608" lon="-2.51348">
        <ele>10.23</ele>
        <time>2017-03-30T10:00:59Z</time>
      </trkpt>
      <trkpt lat="47.29617" lon="-2.51356">
        <ele>6.87</ele>
        <time>2017-03-30T10:01:08Z</time>
      </trkpt>
      <trkpt lat="47.29625" lon="-2.51363">
        <ele>7.35</ele>
        <time>2017-03-30T10:01:18Z</time>
      </trkpt>
      <trkpt lat="47.29633" lon="-2.5137">
        <ele>3.5</ele>
        <time>2017-03-30T10:01:27Z</time>
      </trkpt>
      <trkpt lat="47.2964" lon="-2.51379">
        <ele>10.23</ele>
        <time>2017-03-30T10:01:35Z</time>
      </trkpt>
      <trkpt lat="47.29647" lon="-2.51389">
        <ele>6.87</ele>
        <time>2017-03-30T10:01:45Z</time>
      </trkpt>
      <trkpt lat="47.29654" lon="-2.51395">
        <ele>10.23</ele>
        <time>2017-03-30T10:01:54Z</time>
      </trkpt>
      <trkpt lat="47.29664" lon="-2.51404">
        <ele>4.46</ele>
        <time>2017-03-30T10:02:03Z</time>
      </trkpt>
      <trkpt lat="47.29673" lon="-2.51406">
        <ele>6.87</ele>
        <time>2017-03-30T10:02:12Z</time>
      </trkpt>
      <trkpt lat="47.29682" lon="-2.51407">
        <ele>10.71</ele>
        <time>2017-03-30T10:02:21Z</time>
      </trkpt>
      <trkpt lat="47.29693" lon="-2.51414">
        <ele>3.98</ele>
        <time>2017-03-30T10:02:30Z</time>
      </trkpt>
      <trkpt lat="47.29702" lon="-2.51417">
        <ele>2.54</ele>
        <time>2017-03-30T10:02:39Z</time>
      </trkpt>
      <trkpt lat="47.29712" lon="-2.51422">
        <ele>7.83</ele>
        <time>2017-03-30T10:02:49Z</time>
      </trkpt>
      <trkpt lat="47.29722" lon="-2.51428">
        <ele>9.75</ele>
        <time>2017-03-30T10:02:59Z</time>
      </trkpt>
      <trkpt lat="47.29733" lon="-2.51434">
        <ele>9.27</ele>
        <time>2017-03-30T10:03:08Z</time>
      </trkpt>
      <trkpt lat="47.29743" lon="-2.51441">
        <ele>6.39</ele>
        <time>2017-03-30T10:03:18Z</time>
      </trkpt>
      <trkpt lat="47.29752" lon="-2.51446">
        <ele>8.31</ele>
        <time>2017-03-30T10:03:27Z</time>
      </trkpt>
      <trkpt lat="47.29762" lon="-2.51452">
        <ele>8.79</ele>
        <time>2017-03-30T10:03:37Z</time>
      </trkpt>
      <trkpt lat="47.29771" lon="-2.51459">
        <ele>4.94</ele>
        <time>2017-03-30T10:03:47Z</time>
      </trkpt>
      <trkpt lat="47.29782" lon="-2.51465">
        <ele>4.46</ele>
        <time>2017-03-30T10:03:56Z</time>
      </trkpt>
      <trkpt lat="47.29792" lon="-2.51469">
        <ele>6.87</ele>
        <time>2017-03-30T10:04:04Z</time>
      </trkpt>
      <trkpt lat="47.29803" lon="-2.51471">
        <ele>5.91</ele>
        <time>2017-03-30T10:04:13Z</time>
      </trkpt>
      <trkpt lat="47.29813" lon="-2.5147">
        <ele>8.31</ele>
        <time>2017-03-30T10:04:21Z</time>
      </trkpt>
      <trkpt lat="47.29824" lon="-2.51474">
        <ele>4.46</ele>
        <time>2017-03-30T10:04:30Z</time>
      </trkpt>
      <trkpt lat="47.29832" lon="-2.51484">
        <ele>9.75</ele>
        <time>2017-03-30T10:04:39Z</time>
      </trkpt>
      <trkpt lat="47.2984" lon="-2.51496">
        <ele>6.87</ele>
        <time>2017-03-30T10:04:48Z</time>
      </trkpt>
      <trkpt lat="47.29846" lon="-2.51511">
        <ele>6.39</ele>
        <time>2017-03-30T10:04:57Z</time>
      </trkpt>
      <trkpt lat="47.29844" lon="-2.51526">
        <ele>8.79</ele>
        <time>2017-03-30T10:05:06Z</time>
      </trkpt>
      <trkpt lat="47.29844" lon="-2.5154">
        <ele>5.91</ele>
        <time>2017-03-30T10:05:15Z</time>
      </trkpt>
      <trkpt lat="47.29846" lon="-2.51555">
        <ele>10.23</ele>
        <time>2017-03-30T10:05:25Z</time>
      </trkpt>
      <trkpt lat="47.29851" lon="-2.51569">
        <ele>7.83</ele>
        <time>2017-03-30T10:05:35Z</time>
      </trkpt>
      <trkpt lat="47.29857" lon="-2.5158">
        <ele>10.23</ele>
        <time>2017-03-30T10:05:45Z</time>
      </trkpt>
      <trkpt lat="47.29864" lon="-2.5159">
        <ele>10.71</ele>
        <time>2017-03-30T10:05:54Z</time>
      </trkpt>
      <trkpt lat="47.29873" lon="-2.51596">
        <ele>9.75</ele>
        <time>2017-03-30T10:06:03Z</time>
      </trkpt>
      <trkpt lat="47.29878" lon="-2.51608">
        <ele>8.79</ele>
        <time>2017-03-30T10:06:12Z</time>
      </trkpt>
      <trkpt lat="47.29884" lon="-2.51621">
        <ele>12.15</ele>
        <time>2017-03-30T10:06:22Z</time>
      </trkpt>
      <trkpt lat="47.2989" lon="-2.51635">
        <ele>13.6</ele>
        <time>2017-03-30T10:06:31Z</time>
      </trkpt>
      <trkpt lat="47.29893" lon="-2.51649">
        <ele>10.23</ele>
        <time>2017-03-30T10:06:40Z</time>
      </trkpt>
      <trkpt lat="47.29893" lon="-2.51663">
        <ele>11.67</ele>
        <time>2017-03-30T10:06:57Z</time>
      </trkpt>
      <trkpt lat="47.29899" lon="-2.51674">
        <ele>13.6</ele>
        <time>2017-03-30T10:07:10Z</time>
      </trkpt>
      <trkpt lat="47.29897" lon="-2.51682">
        <ele>13.12</ele>
        <time>2017-03-30T10:08:55Z</time>
      </trkpt>
      <trkpt lat="47.29897" lon="-2.51686">
        <ele>13.6</ele>
        <time>2017-03-30T10:12:29Z</time>
      </trkpt>
      <trkpt lat="47.299" lon="-2.51686">
        <ele>12.63</ele>
        <time>2017-03-30T10:12:58Z</time>
      </trkpt>
      <trkpt lat="47.29905" lon="-2.51697">
        <ele>13.6</ele>
        <time>2017-03-30T10:13:11Z</time>
      </trkpt>
      <trkpt lat="47.29908" lon="-2.5171">
        <ele>13.12</ele>
        <time>2017-03-30T10:13:25Z</time>
      </trkpt>
      <trkpt lat="47.29912" lon="-2.51722">
        <ele>12.63</ele>
        <time>2017-03-30T10:13:35Z</time>
      </trkpt>
      <trkpt lat="47.29916" lon="-2.51735">
        <ele>14.08</ele>
        <time>2017-03-30T10:13:44Z</time>
      </trkpt>
      <trkpt lat="47.29921" lon="-2.51749">
        <ele>17.92</ele>
        <time>2017-03-30T10:13:54Z</time>
      </trkpt>
      <trkpt lat="47.29926" lon="-2.51762">
        <ele>14.08</ele>
        <time>2017-03-30T10:14:03Z</time>
      </trkpt>
      <trkpt lat="47.2993" lon="-2.51775">
        <ele>16.96</ele>
        <time>2017-03-30T10:14:12Z</time>
      </trkpt>
      <trkpt lat="47.29936" lon="-2.51789">
        <ele>16.96</ele>
        <time>2017-03-30T10:14:24Z</time>
      </trkpt>
      <trkpt lat="47.29943" lon="-2.51802">
        <ele>16.48</ele>
        <time>2017-03-30T10:14:36Z</time>
      </trkpt>
      <trkpt lat="47.29949" lon="-2.51815">
        <ele>14.56</ele>
        <time>2017-03-30T10:14:49Z</time>
      </trkpt>
      <trkpt lat="47.29945" lon="-2.51807">
        <ele>18.88</ele>
        <time>2017-03-30T10:15:09Z</time>
      </trkpt>
      <trkpt lat="47.29953" lon="-2.5181">
        <ele>16</ele>
        <time>2017-03-30T10:15:20Z</time>
      </trkpt>
      <trkpt lat="47.29947" lon="-2.51822">
        <ele>16</ele>
        <time>2017-03-30T10:15:30Z</time>
      </trkpt>
      <trkpt lat="47.2994" lon="-2.51817">
        <ele>16.48</ele>
        <time>2017-03-30T10:15:40Z</time>
      </trkpt>
      <trkpt lat="47.29943" lon="-2.51804">
        <ele>14.08</ele>
        <time>2017-03-30T10:15:49Z</time>
      </trkpt>
      <trkpt lat="47.29954" lon="-2.51802">
        <ele>13.6</ele>
        <time>2017-03-30T10:15:59Z</time>
      </trkpt>
      <trkpt lat="47.2996" lon="-2.51814">
        <ele>11.67</ele>
        <time>2017-03-30T10:16:09Z</time>
      </trkpt>
      <trkpt lat="47.29965" lon="-2.5183">
        <ele>11.67</ele>
        <time>2017-03-30T10:16:20Z</time>
      </trkpt>
      <trkpt lat="47.29971" lon="-2.51842">
        <ele>9.27</ele>
        <time>2017-03-30T10:16:30Z</time>
      </trkpt>
      <trkpt lat="47.29973" lon="-2.51856">
        <ele>6.87</ele>
        <time>2017-03-30T10:16:38Z</time>
      </trkpt>
      <trkpt lat="47.29975" lon="-2.51868">
        <ele>8.31</ele>
        <time>2017-03-30T10:16:47Z</time>
      </trkpt>
      <trkpt lat="47.29978" lon="-2.51881">
        <ele>7.35</ele>
        <time>2017-03-30T10:16:56Z</time>
      </trkpt>
      <trkpt lat="47.29986" lon="-2.51876">
        <ele>8.31</ele>
        <time>2017-03-30T10:17:06Z</time>
      </trkpt>
      <trkpt lat="47.29995" lon="-2.51884">
        <ele>6.87</ele>
        <time>2017-03-30T10:17:15Z</time>
      </trkpt>
      <trkpt lat="47.30001" lon="-2.51896">
        <ele>5.91</ele>
        <time>2017-03-30T10:17:24Z</time>
      </trkpt>
      <trkpt lat="47.30009" lon="-2.51907">
        <ele>7.83</ele>
        <time>2017-03-30T10:17:33Z</time>
      </trkpt>
      <trkpt lat="47.30016" lon="-2.51918">
        <ele>7.83</ele>
        <time>2017-03-30T10:17:42Z</time>
      </trkpt>
      <trkpt lat="47.30022" lon="-2.51928">
        <ele>7.35</ele>
        <time>2017-03-30T10:17:51Z</time>
      </trkpt>
      <trkpt lat="47.30028" lon="-2.51939">
        <ele>6.39</ele>
        <time>2017-03-30T10:18:00Z</time>
      </trkpt>
      <trkpt lat="47.30035" lon="-2.51949">
        <ele>7.35</ele>
        <time>2017-03-30T10:18:09Z</time>
      </trkpt>
      <trkpt lat="47.30042" lon="-2.5196">
        <ele>7.35</ele>
        <time>2017-03-30T10:18:18Z</time>
      </trkpt>
      <trkpt lat="47.30042" lon="-2.51973">
        <ele>7.35</ele>
        <time>2017-03-30T10:18:27Z</time>
      </trkpt>
      <trkpt lat="47.30043" lon="-2.51976">
        <ele>6.39</ele>
        <time>2017-03-30T10:18:31Z</time>
      </trkpt>
      <trkpt lat="47.30043" lon="-2.51976">
        <ele>-1.79</ele>
        <time>2017-03-30T10:57:58Z</time>
      </trkpt>
      <trkpt lat="47.30068" lon="-2.51998">
        <ele>8.79</ele>
        <time>2017-03-30T10:58:05Z</time>
      </trkpt>
      <trkpt lat="47.30083" lon="-2.52042">
        <ele>6.39</ele>
        <time>2017-03-30T10:58:26Z</time>
      </trkpt>
      <trkpt lat="47.30081" lon="-2.52062">
        <ele>5.42</ele>
        <time>2017-03-30T10:58:41Z</time>
      </trkpt>
      <trkpt lat="47.30074" lon="-2.52074">
        <ele>4.46</ele>
        <time>2017-03-30T10:58:50Z</time>
      </trkpt>
      <trkpt lat="47.30065" lon="-2.52081">
        <ele>3.98</ele>
        <time>2017-03-30T10:58:59Z</time>
      </trkpt>
      <trkpt lat="47.30056" lon="-2.52086">
        <ele>3.98</ele>
        <time>2017-03-30T10:59:08Z</time>
      </trkpt>
      <trkpt lat="47.30044" lon="-2.52087">
        <ele>4.94</ele>
        <time>2017-03-30T10:59:17Z</time>
      </trkpt>
      <trkpt lat="47.30035" lon="-2.52102">
        <ele>4.94</ele>
        <time>2017-03-30T10:59:30Z</time>
      </trkpt>
      <trkpt lat="47.3004" lon="-2.52118">
        <ele>2.54</ele>
        <time>2017-03-30T10:59:42Z</time>
      </trkpt>
      <trkpt lat="47.30041" lon="-2.52133">
        <ele>4.94</ele>
        <time>2017-03-30T10:59:51Z</time>
      </trkpt>
      <trkpt lat="47.30042" lon="-2.52151">
        <ele>2.06</ele>
        <time>2017-03-30T11:00:04Z</time>
      </trkpt>
      <trkpt lat="47.30043" lon="-2.52167">
        <ele>2.06</ele>
        <time>2017-03-30T11:00:14Z</time>
      </trkpt>
      <trkpt lat="47.30048" lon="-2.52187">
        <ele>3.5</ele>
        <time>2017-03-30T11:00:33Z</time>
      </trkpt>
      <trkpt lat="47.30049" lon="-2.52206">
        <ele>3.98</ele>
        <time>2017-03-30T11:00:45Z</time>
      </trkpt>
      <trkpt lat="47.30053" lon="-2.52221">
        <ele>4.46</ele>
        <time>2017-03-30T11:00:55Z</time>
      </trkpt>
      <trkpt lat="47.30053" lon="-2.5224">
        <ele>3.98</ele>
        <time>2017-03-30T11:01:04Z</time>
      </trkpt>
      <trkpt lat="47.30056" lon="-2.52257">
        <ele>3.98</ele>
        <time>2017-03-30T11:01:13Z</time>
      </trkpt>
      <trkpt lat="47.30057" lon="-2.52275">
        <ele>1.58</ele>
        <time>2017-03-30T11:01:22Z</time>
      </trkpt>
      <trkpt lat="47.30058" lon="-2.523">
        <ele>1.58</ele>
        <time>2017-03-30T11:01:34Z</time>
      </trkpt>
      <trkpt lat="47.3006" lon="-2.52319">
        <ele>3.02</ele>
        <time>2017-03-30T11:01:43Z</time>
      </trkpt>
      <trkpt lat="47.30062" lon="-2.52331">
        <ele>3.98</ele>
        <time>2017-03-30T11:01:52Z</time>
      </trkpt>
      <trkpt lat="47.30063" lon="-2.52345">
        <ele>3.5</ele>
        <time>2017-03-30T11:02:01Z</time>
      </trkpt>
      <trkpt lat="47.30064" lon="-2.52361">
        <ele>2.54</ele>
        <time>2017-03-30T11:02:10Z</time>
      </trkpt>
      <trkpt lat="47.30065" lon="-2.52377">
        <ele>1.58</ele>
        <time>2017-03-30T11:02:19Z</time>
      </trkpt>
      <trkpt lat="47.30068" lon="-2.52393">
        <ele>3.98</ele>
        <time>2017-03-30T11:02:28Z</time>
      </trkpt>
      <trkpt lat="47.30068" lon="-2.52409">
        <ele>2.06</ele>
        <time>2017-03-30T11:02:37Z</time>
      </trkpt>
      <trkpt lat="47.3007" lon="-2.52425">
        <ele>4.46</ele>
        <time>2017-03-30T11:02:46Z</time>
      </trkpt>
      <trkpt lat="47.3007" lon="-2.52442">
        <ele>3.5</ele>
        <time>2017-03-30T11:02:55Z</time>
      </trkpt>
      <trkpt lat="47.30072" lon="-2.52457">
        <ele>0.62</ele>
        <time>2017-03-30T11:03:04Z</time>
      </trkpt>
      <trkpt lat="47.30075" lon="-2.52475">
        <ele>3.98</ele>
        <time>2017-03-30T11:03:13Z</time>
      </trkpt>
      <trkpt lat="47.30077" lon="-2.52492">
        <ele>3.02</ele>
        <time>2017-03-30T11:03:22Z</time>
      </trkpt>
      <trkpt lat="47.30077" lon="-2.52505">
        <ele>1.58</ele>
        <time>2017-03-30T11:03:31Z</time>
      </trkpt>
      <trkpt lat="47.3008" lon="-2.52522">
        <ele>3.5</ele>
        <time>2017-03-30T11:03:40Z</time>
      </trkpt>
      <trkpt lat="47.30084" lon="-2.52541">
        <ele>4.94</ele>
        <time>2017-03-30T11:03:50Z</time>
      </trkpt>
      <trkpt lat="47.30087" lon="-2.52559">
        <ele>2.06</ele>
        <time>2017-03-30T11:03:59Z</time>
      </trkpt>
      <trkpt lat="47.30088" lon="-2.52572">
        <ele>5.42</ele>
        <time>2017-03-30T11:04:07Z</time>
      </trkpt>
      <trkpt lat="47.30091" lon="-2.52586">
        <ele>0.62</ele>
        <time>2017-03-30T11:04:15Z</time>
      </trkpt>
      <trkpt lat="47.30093" lon="-2.52602">
        <ele>3.02</ele>
        <time>2017-03-30T11:04:23Z</time>
      </trkpt>
      <trkpt lat="47.30094" lon="-2.52618">
        <ele>2.54</ele>
        <time>2017-03-30T11:04:32Z</time>
      </trkpt>
      <trkpt lat="47.30095" lon="-2.52633">
        <ele>3.5</ele>
        <time>2017-03-30T11:04:40Z</time>
      </trkpt>
      <trkpt lat="47.30097" lon="-2.52648">
        <ele>3.02</ele>
        <time>2017-03-30T11:04:48Z</time>
      </trkpt>
      <trkpt lat="47.30097" lon="-2.52664">
        <ele>5.42</ele>
        <time>2017-03-30T11:04:56Z</time>
      </trkpt>
      <trkpt lat="47.301" lon="-2.52678">
        <ele>2.06</ele>
        <time>2017-03-30T11:05:04Z</time>
      </trkpt>
      <trkpt lat="47.30099" lon="-2.52692">
        <ele>4.46</ele>
        <time>2017-03-30T11:05:11Z</time>
      </trkpt>
      <trkpt lat="47.30098" lon="-2.52707">
        <ele>1.58</ele>
        <time>2017-03-30T11:05:19Z</time>
      </trkpt>
      <trkpt lat="47.30097" lon="-2.52722">
        <ele>3.5</ele>
        <time>2017-03-30T11:05:27Z</time>
      </trkpt>
      <trkpt lat="47.30094" lon="-2.52735">
        <ele>4.94</ele>
        <time>2017-03-30T11:05:35Z</time>
      </trkpt>
      <trkpt lat="47.30094" lon="-2.52749">
        <ele>2.54</ele>
        <time>2017-03-30T11:05:44Z</time>
      </trkpt>
      <trkpt lat="47.3009" lon="-2.52761">
        <ele>4.46</ele>
        <time>2017-03-30T11:05:52Z</time>
      </trkpt>
      <trkpt lat="47.30091" lon="-2.52778">
        <ele>6.87</ele>
        <time>2017-03-30T11:06:02Z</time>
      </trkpt>
      <trkpt lat="47.30101" lon="-2.52786">
        <ele>5.91</ele>
        <time>2017-03-30T11:06:13Z</time>
      </trkpt>
      <trkpt lat="47.3011" lon="-2.52789">
        <ele>4.46</ele>
        <time>2017-03-30T11:06:22Z</time>
      </trkpt>
      <trkpt lat="47.30115" lon="-2.52799">
        <ele>7.83</ele>
        <time>2017-03-30T11:06:32Z</time>
      </trkpt>
      <trkpt lat="47.30111" lon="-2.52814">
        <ele>3.5</ele>
        <time>2017-03-30T11:06:55Z</time>
      </trkpt>
      <trkpt lat="47.30105" lon="-2.52827">
        <ele>5.91</ele>
        <time>2017-03-30T11:07:03Z</time>
      </trkpt>
      <trkpt lat="47.301" lon="-2.52839">
        <ele>5.42</ele>
        <time>2017-03-30T11:07:11Z</time>
      </trkpt>
      <trkpt lat="47.30097" lon="-2.52853">
        <ele>7.35</ele>
        <time>2017-03-30T11:07:19Z</time>
      </trkpt>
      <trkpt lat="47.30094" lon="-2.52866">
        <ele>5.42</ele>
        <time>2017-03-30T11:07:27Z</time>
      </trkpt>
      <trkpt lat="47.30089" lon="-2.52878">
        <ele>6.87</ele>
        <time>2017-03-30T11:07:35Z</time>
      </trkpt>
      <trkpt lat="47.30084" lon="-2.52891">
        <ele>3.98</ele>
        <time>2017-03-30T11:07:43Z</time>
      </trkpt>
      <trkpt lat="47.3008" lon="-2.52905">
        <ele>6.87</ele>
        <time>2017-03-30T11:07:51Z</time>
      </trkpt>
      <trkpt lat="47.30076" lon="-2.52919">
        <ele>6.87</ele>
        <time>2017-03-30T11:07:59Z</time>
      </trkpt>
      <trkpt lat="47.30071" lon="-2.52932">
        <ele>6.39</ele>
        <time>2017-03-30T11:08:07Z</time>
      </trkpt>
      <trkpt lat="47.30068" lon="-2.52946">
        <ele>7.83</ele>
        <time>2017-03-30T11:08:15Z</time>
      </trkpt>
      <trkpt lat="47.30064" lon="-2.52959">
        <ele>4.46</ele>
        <time>2017-03-30T11:08:23Z</time>
      </trkpt>
      <trkpt lat="47.30059" lon="-2.52972">
        <ele>4.46</ele>
        <time>2017-03-30T11:08:31Z</time>
      </trkpt>
      <trkpt lat="47.30054" lon="-2.52985">
        <ele>6.39</ele>
        <time>2017-03-30T11:08:39Z</time>
      </trkpt>
      <trkpt lat="47.3005" lon="-2.52998">
        <ele>5.42</ele>
        <time>2017-03-30T11:08:47Z</time>
      </trkpt>
      <trkpt lat="47.30047" lon="-2.53011">
        <ele>4.46</ele>
        <time>2017-03-30T11:08:54Z</time>
      </trkpt>
      <trkpt lat="47.30044" lon="-2.53025">
        <ele>5.42</ele>
        <time>2017-03-30T11:09:02Z</time>
      </trkpt>
      <trkpt lat="47.30042" lon="-2.5304">
        <ele>7.35</ele>
        <time>2017-03-30T11:09:10Z</time>
      </trkpt>
      <trkpt lat="47.30041" lon="-2.53054">
        <ele>4.94</ele>
        <time>2017-03-30T11:09:18Z</time>
      </trkpt>
      <trkpt lat="47.3004" lon="-2.53069">
        <ele>5.42</ele>
        <time>2017-03-30T11:09:26Z</time>
      </trkpt>
      <trkpt lat="47.30042" lon="-2.53083">
        <ele>4.46</ele>
        <time>2017-03-30T11:09:33Z</time>
      </trkpt>
      <trkpt lat="47.30042" lon="-2.53098">
        <ele>3.98</ele>
        <time>2017-03-30T11:09:41Z</time>
      </trkpt>
      <trkpt lat="47.30042" lon="-2.53113">
        <ele>6.39</ele>
        <time>2017-03-30T11:09:49Z</time>
      </trkpt>
      <trkpt lat="47.30042" lon="-2.53127">
        <ele>4.46</ele>
        <time>2017-03-30T11:09:57Z</time>
      </trkpt>
      <trkpt lat="47.30044" lon="-2.5314">
        <ele>3.02</ele>
        <time>2017-03-30T11:10:05Z</time>
      </trkpt>
      <trkpt lat="47.30047" lon="-2.53154">
        <ele>5.42</ele>
        <time>2017-03-30T11:10:13Z</time>
      </trkpt>
      <trkpt lat="47.30048" lon="-2.53169">
        <ele>3.98</ele>
        <time>2017-03-30T11:10:21Z</time>
      </trkpt>
      <trkpt lat="47.30049" lon="-2.53183">
        <ele>3.5</ele>
        <time>2017-03-30T11:10:29Z</time>
      </trkpt>
      <trkpt lat="47.30049" lon="-2.53197">
        <ele>5.91</ele>
        <time>2017-03-30T11:10:37Z</time>
      </trkpt>
      <trkpt lat="47.30048" lon="-2.53211">
        <ele>5.42</ele>
        <time>2017-03-30T11:10:45Z</time>
      </trkpt>
      <trkpt lat="47.30049" lon="-2.53225">
        <ele>4.94</ele>
        <time>2017-03-30T11:10:53Z</time>
      </trkpt>
      <trkpt lat="47.30051" lon="-2.5324">
        <ele>4.94</ele>
        <time>2017-03-30T11:11:01Z</time>
      </trkpt>
      <trkpt lat="47.30053" lon="-2.53254">
        <ele>4.46</ele>
        <time>2017-03-30T11:11:09Z</time>
      </trkpt>
      <trkpt lat="47.30057" lon="-2.53267">
        <ele>3.98</ele>
        <time>2017-03-30T11:11:17Z</time>
      </trkpt>
      <trkpt lat="47.3006" lon="-2.5328">
        <ele>4.94</ele>
        <time>2017-03-30T11:11:25Z</time>
      </trkpt>
      <trkpt lat="47.3005" lon="-2.53282">
        <ele>3.02</ele>
        <time>2017-03-30T11:11:33Z</time>
      </trkpt>
      <trkpt lat="47.30044" lon="-2.53294">
        <ele>3.98</ele>
        <time>2017-03-30T11:11:42Z</time>
      </trkpt>
      <trkpt lat="47.30045" lon="-2.53309">
        <ele>1.58</ele>
        <time>2017-03-30T11:11:50Z</time>
      </trkpt>
      <trkpt lat="47.30043" lon="-2.53322">
        <ele>3.5</ele>
        <time>2017-03-30T11:11:58Z</time>
      </trkpt>
      <trkpt lat="47.30042" lon="-2.53336">
        <ele>5.42</ele>
        <time>2017-03-30T11:12:06Z</time>
      </trkpt>
      <trkpt lat="47.3004" lon="-2.53351">
        <ele>3.98</ele>
        <time>2017-03-30T11:12:14Z</time>
      </trkpt>
      <trkpt lat="47.30033" lon="-2.53357">
        <ele>3.5</ele>
        <time>2017-03-30T11:12:23Z</time>
      </trkpt>
      <trkpt lat="47.30024" lon="-2.5335">
        <ele>5.91</ele>
        <time>2017-03-30T11:12:35Z</time>
      </trkpt>
      <trkpt lat="47.3002" lon="-2.53337">
        <ele>4.46</ele>
        <time>2017-03-30T11:12:49Z</time>
      </trkpt>
      <trkpt lat="47.30017" lon="-2.53322">
        <ele>4.46</ele>
        <time>2017-03-30T11:13:03Z</time>
      </trkpt>
      <trkpt lat="47.30025" lon="-2.53352">
        <ele>4.94</ele>
        <time>2017-03-30T11:13:23Z</time>
      </trkpt>
      <trkpt lat="47.30032" lon="-2.53356">
        <ele>3.02</ele>
        <time>2017-03-30T11:13:33Z</time>
      </trkpt>
      <trkpt lat="47.30043" lon="-2.53353">
        <ele>3.5</ele>
        <time>2017-03-30T11:13:43Z</time>
      </trkpt>
      <trkpt lat="47.30046" lon="-2.5334">
        <ele>2.54</ele>
        <time>2017-03-30T11:13:51Z</time>
      </trkpt>
      <trkpt lat="47.30048" lon="-2.53324">
        <ele>2.06</ele>
        <time>2017-03-30T11:14:00Z</time>
      </trkpt>
      <trkpt lat="47.30049" lon="-2.53311">
        <ele>1.1</ele>
        <time>2017-03-30T11:14:08Z</time>
      </trkpt>
      <trkpt lat="47.30049" lon="-2.53297">
        <ele>1.58</ele>
        <time>2017-03-30T11:14:16Z</time>
      </trkpt>
      <trkpt lat="47.3005" lon="-2.53282">
        <ele>3.02</ele>
        <time>2017-03-30T11:14:24Z</time>
      </trkpt>
      <trkpt lat="47.30059" lon="-2.53281">
        <ele>2.54</ele>
        <time>2017-03-30T11:14:32Z</time>
      </trkpt>
      <trkpt lat="47.30064" lon="-2.53291">
        <ele>3.02</ele>
        <time>2017-03-30T11:14:39Z</time>
      </trkpt>
      <trkpt lat="47.30067" lon="-2.53304">
        <ele>5.42</ele>
        <time>2017-03-30T11:14:46Z</time>
      </trkpt>
      <trkpt lat="47.3007" lon="-2.53317">
        <ele>2.06</ele>
        <time>2017-03-30T11:14:53Z</time>
      </trkpt>
      <trkpt lat="47.30072" lon="-2.53333">
        <ele>0.14</ele>
        <time>2017-03-30T11:15:01Z</time>
      </trkpt>
      <trkpt lat="47.30075" lon="-2.53346">
        <ele>1.1</ele>
        <time>2017-03-30T11:15:08Z</time>
      </trkpt>
      <trkpt lat="47.30075" lon="-2.5336">
        <ele>1.58</ele>
        <time>2017-03-30T11:15:15Z</time>
      </trkpt>
      <trkpt lat="47.30078" lon="-2.53375">
        <ele>1.58</ele>
        <time>2017-03-30T11:15:23Z</time>
      </trkpt>
      <trkpt lat="47.3008" lon="-2.53389">
        <ele>1.58</ele>
        <time>2017-03-30T11:15:30Z</time>
      </trkpt>
      <trkpt lat="47.30081" lon="-2.53402">
        <ele>2.54</ele>
        <time>2017-03-30T11:15:37Z</time>
      </trkpt>
      <trkpt lat="47.30079" lon="-2.53416">
        <ele>4.94</ele>
        <time>2017-03-30T11:15:44Z</time>
      </trkpt>
      <trkpt lat="47.30074" lon="-2.53427">
        <ele>3.02</ele>
        <time>2017-03-30T11:15:51Z</time>
      </trkpt>
      <trkpt lat="47.30068" lon="-2.53437">
        <ele>3.02</ele>
        <time>2017-03-30T11:15:58Z</time>
      </trkpt>
      <trkpt lat="47.30062" lon="-2.53445">
        <ele>3.5</ele>
        <time>2017-03-30T11:16:05Z</time>
      </trkpt>
      <trkpt lat="47.30053" lon="-2.53454">
        <ele>4.46</ele>
        <time>2017-03-30T11:16:13Z</time>
      </trkpt>
      <trkpt lat="47.30046" lon="-2.53461">
        <ele>3.02</ele>
        <time>2017-03-30T11:16:20Z</time>
      </trkpt>
      <trkpt lat="47.30038" lon="-2.53469">
        <ele>6.87</ele>
        <time>2017-03-30T11:16:28Z</time>
      </trkpt>
      <trkpt lat="47.3003" lon="-2.53476">
        <ele>6.39</ele>
        <time>2017-03-30T11:16:35Z</time>
      </trkpt>
      <trkpt lat="47.30021" lon="-2.53484">
        <ele>2.06</ele>
        <time>2017-03-30T11:16:43Z</time>
      </trkpt>
      <trkpt lat="47.30013" lon="-2.53493">
        <ele>5.91</ele>
        <time>2017-03-30T11:16:51Z</time>
      </trkpt>
      <trkpt lat="47.30005" lon="-2.535">
        <ele>2.54</ele>
        <time>2017-03-30T11:16:58Z</time>
      </trkpt>
      <trkpt lat="47.29997" lon="-2.53506">
        <ele>3.02</ele>
        <time>2017-03-30T11:17:06Z</time>
      </trkpt>
      <trkpt lat="47.29989" lon="-2.53514">
        <ele>5.91</ele>
        <time>2017-03-30T11:17:15Z</time>
      </trkpt>
      <trkpt lat="47.29984" lon="-2.53523">
        <ele>4.46</ele>
        <time>2017-03-30T11:17:26Z</time>
      </trkpt>
      <trkpt lat="47.29985" lon="-2.5353">
        <ele>4.46</ele>
        <time>2017-03-30T11:19:07Z</time>
      </trkpt>
      <trkpt lat="47.2998" lon="-2.53531">
        <ele>4.94</ele>
        <time>2017-03-30T11:19:29Z</time>
      </trkpt>
      <trkpt lat="47.29973" lon="-2.5353">
        <ele>3.02</ele>
        <time>2017-03-30T11:19:52Z</time>
      </trkpt>
      <trkpt lat="47.29965" lon="-2.53542">
        <ele>3.98</ele>
        <time>2017-03-30T11:20:00Z</time>
      </trkpt>
      <trkpt lat="47.29957" lon="-2.53552">
        <ele>4.46</ele>
        <time>2017-03-30T11:20:08Z</time>
      </trkpt>
      <trkpt lat="47.29949" lon="-2.53563">
        <ele>3.98</ele>
        <time>2017-03-30T11:20:16Z</time>
      </trkpt>
      <trkpt lat="47.29941" lon="-2.53575">
        <ele>6.87</ele>
        <time>2017-03-30T11:20:24Z</time>
      </trkpt>
      <trkpt lat="47.29934" lon="-2.53586">
        <ele>3.98</ele>
        <time>2017-03-30T11:20:32Z</time>
      </trkpt>
      <trkpt lat="47.29928" lon="-2.53599">
        <ele>2.54</ele>
        <time>2017-03-30T11:20:41Z</time>
      </trkpt>
      <trkpt lat="47.29924" lon="-2.53613">
        <ele>3.98</ele>
        <time>2017-03-30T11:20:49Z</time>
      </trkpt>
      <trkpt lat="47.29921" lon="-2.53628">
        <ele>4.46</ele>
        <time>2017-03-30T11:20:57Z</time>
      </trkpt>
      <trkpt lat="47.29919" lon="-2.53641">
        <ele>2.06</ele>
        <time>2017-03-30T11:21:04Z</time>
      </trkpt>
      <trkpt lat="47.29917" lon="-2.53656">
        <ele>7.83</ele>
        <time>2017-03-30T11:21:12Z</time>
      </trkpt>
      <trkpt lat="47.29915" lon="-2.5367">
        <ele>2.06</ele>
        <time>2017-03-30T11:21:20Z</time>
      </trkpt>
      <trkpt lat="47.29914" lon="-2.53684">
        <ele>3.02</ele>
        <time>2017-03-30T11:21:28Z</time>
      </trkpt>
      <trkpt lat="47.29915" lon="-2.53699">
        <ele>4.94</ele>
        <time>2017-03-30T11:21:36Z</time>
      </trkpt>
      <trkpt lat="47.29915" lon="-2.53712">
        <ele>5.91</ele>
        <time>2017-03-30T11:21:44Z</time>
      </trkpt>
      <trkpt lat="47.29917" lon="-2.53728">
        <ele>3.5</ele>
        <time>2017-03-30T11:21:52Z</time>
      </trkpt>
      <trkpt lat="47.29919" lon="-2.53742">
        <ele>4.46</ele>
        <time>2017-03-30T11:22:00Z</time>
      </trkpt>
      <trkpt lat="47.29921" lon="-2.53756">
        <ele>3.98</ele>
        <time>2017-03-30T11:22:08Z</time>
      </trkpt>
      <trkpt lat="47.29923" lon="-2.53769">
        <ele>5.42</ele>
        <time>2017-03-30T11:22:15Z</time>
      </trkpt>
      <trkpt lat="47.29926" lon="-2.53782">
        <ele>5.91</ele>
        <time>2017-03-30T11:22:22Z</time>
      </trkpt>
      <trkpt lat="47.29927" lon="-2.53797">
        <ele>6.87</ele>
        <time>2017-03-30T11:22:30Z</time>
      </trkpt>
      <trkpt lat="47.2993" lon="-2.53811">
        <ele>7.35</ele>
        <time>2017-03-30T11:22:38Z</time>
      </trkpt>
      <trkpt lat="47.29932" lon="-2.53826">
        <ele>2.54</ele>
        <time>2017-03-30T11:22:46Z</time>
      </trkpt>
      <trkpt lat="47.29939" lon="-2.53836">
        <ele>7.83</ele>
        <time>2017-03-30T11:22:53Z</time>
      </trkpt>
      <trkpt lat="47.29945" lon="-2.53846">
        <ele>5.91</ele>
        <time>2017-03-30T11:23:00Z</time>
      </trkpt>
      <trkpt lat="47.29947" lon="-2.53859">
        <ele>2.06</ele>
        <time>2017-03-30T11:23:07Z</time>
      </trkpt>
      <trkpt lat="47.29948" lon="-2.53874">
        <ele>4.94</ele>
        <time>2017-03-30T11:23:15Z</time>
      </trkpt>
      <trkpt lat="47.29948" lon="-2.53889">
        <ele>4.94</ele>
        <time>2017-03-30T11:23:23Z</time>
      </trkpt>
      <trkpt lat="47.2995" lon="-2.53905">
        <ele>5.91</ele>
        <time>2017-03-30T11:23:31Z</time>
      </trkpt>
      <trkpt lat="47.2995" lon="-2.5392">
        <ele>5.42</ele>
        <time>2017-03-30T11:23:39Z</time>
      </trkpt>
      <trkpt lat="47.29951" lon="-2.53933">
        <ele>4.46</ele>
        <time>2017-03-30T11:23:47Z</time>
      </trkpt>
      <trkpt lat="47.29955" lon="-2.53946">
        <ele>4.94</ele>
        <time>2017-03-30T11:23:55Z</time>
      </trkpt>
      <trkpt lat="47.29957" lon="-2.53959">
        <ele>3.5</ele>
        <time>2017-03-30T11:24:02Z</time>
      </trkpt>
      <trkpt lat="47.29958" lon="-2.53974">
        <ele>3.98</ele>
        <time>2017-03-30T11:24:10Z</time>
      </trkpt>
      <trkpt lat="47.29955" lon="-2.53988">
        <ele>4.46</ele>
        <time>2017-03-30T11:24:18Z</time>
      </trkpt>
      <trkpt lat="47.29951" lon="-2.54001">
        <ele>3.98</ele>
        <time>2017-03-30T11:24:26Z</time>
      </trkpt>
      <trkpt lat="47.29946" lon="-2.54013">
        <ele>5.42</ele>
        <time>2017-03-30T11:24:34Z</time>
      </trkpt>
      <trkpt lat="47.29939" lon="-2.54023">
        <ele>3.5</ele>
        <time>2017-03-30T11:24:42Z</time>
      </trkpt>
      <trkpt lat="47.29931" lon="-2.54032">
        <ele>3.02</ele>
        <time>2017-03-30T11:24:50Z</time>
      </trkpt>
      <trkpt lat="47.29924" lon="-2.54043">
        <ele>4.94</ele>
        <time>2017-03-30T11:24:58Z</time>
      </trkpt>
      <trkpt lat="47.29918" lon="-2.54054">
        <ele>3.02</ele>
        <time>2017-03-30T11:25:06Z</time>
      </trkpt>
      <trkpt lat="47.29912" lon="-2.54066">
        <ele>5.42</ele>
        <time>2017-03-30T11:25:14Z</time>
      </trkpt>
      <trkpt lat="47.29907" lon="-2.54078">
        <ele>3.5</ele>
        <time>2017-03-30T11:25:22Z</time>
      </trkpt>
      <trkpt lat="47.29902" lon="-2.54091">
        <ele>3.02</ele>
        <time>2017-03-30T11:25:30Z</time>
      </trkpt>
      <trkpt lat="47.29898" lon="-2.54104">
        <ele>2.54</ele>
        <time>2017-03-30T11:25:38Z</time>
      </trkpt>
      <trkpt lat="47.29895" lon="-2.54117">
        <ele>6.87</ele>
        <time>2017-03-30T11:25:46Z</time>
      </trkpt>
      <trkpt lat="47.29891" lon="-2.54131">
        <ele>6.87</ele>
        <time>2017-03-30T11:25:54Z</time>
      </trkpt>
      <trkpt lat="47.29887" lon="-2.54144">
        <ele>3.5</ele>
        <time>2017-03-30T11:26:02Z</time>
      </trkpt>
      <trkpt lat="47.29883" lon="-2.54157">
        <ele>5.42</ele>
        <time>2017-03-30T11:26:10Z</time>
      </trkpt>
      <trkpt lat="47.29881" lon="-2.54171">
        <ele>6.87</ele>
        <time>2017-03-30T11:26:18Z</time>
      </trkpt>
      <trkpt lat="47.29879" lon="-2.54186">
        <ele>6.39</ele>
        <time>2017-03-30T11:26:26Z</time>
      </trkpt>
      <trkpt lat="47.29878" lon="-2.54201">
        <ele>7.35</ele>
        <time>2017-03-30T11:26:34Z</time>
      </trkpt>
      <trkpt lat="47.29877" lon="-2.54216">
        <ele>4.94</ele>
        <time>2017-03-30T11:26:42Z</time>
      </trkpt>
      <trkpt lat="47.29876" lon="-2.54232">
        <ele>2.54</ele>
        <time>2017-03-30T11:26:50Z</time>
      </trkpt>
      <trkpt lat="47.29877" lon="-2.54246">
        <ele>2.06</ele>
        <time>2017-03-30T11:26:58Z</time>
      </trkpt>
      <trkpt lat="47.29876" lon="-2.5426">
        <ele>4.94</ele>
        <time>2017-03-30T11:27:06Z</time>
      </trkpt>
      <trkpt lat="47.29874" lon="-2.54276">
        <ele>4.94</ele>
        <time>2017-03-30T11:27:14Z</time>
      </trkpt>
      <trkpt lat="47.29874" lon="-2.5429">
        <ele>6.39</ele>
        <time>2017-03-30T11:27:21Z</time>
      </trkpt>
      <trkpt lat="47.29875" lon="-2.54302">
        <ele>2.54</ele>
        <time>2017-03-30T11:27:30Z</time>
      </trkpt>
      <trkpt lat="47.29873" lon="-2.54318">
        <ele>5.91</ele>
        <time>2017-03-30T11:27:38Z</time>
      </trkpt>
      <trkpt lat="47.29869" lon="-2.54332">
        <ele>5.42</ele>
        <time>2017-03-30T11:27:46Z</time>
      </trkpt>
      <trkpt lat="47.29862" lon="-2.54343">
        <ele>3.02</ele>
        <time>2017-03-30T11:27:54Z</time>
      </trkpt>
      <trkpt lat="47.29854" lon="-2.54351">
        <ele>5.91</ele>
        <time>2017-03-30T11:28:02Z</time>
      </trkpt>
      <trkpt lat="47.29845" lon="-2.54358">
        <ele>4.94</ele>
        <time>2017-03-30T11:28:10Z</time>
      </trkpt>
      <trkpt lat="47.29838" lon="-2.54367">
        <ele>7.35</ele>
        <time>2017-03-30T11:28:18Z</time>
      </trkpt>
      <trkpt lat="47.29832" lon="-2.54378">
        <ele>3.5</ele>
        <time>2017-03-30T11:28:26Z</time>
      </trkpt>
      <trkpt lat="47.29826" lon="-2.5439">
        <ele>8.31</ele>
        <time>2017-03-30T11:28:34Z</time>
      </trkpt>
      <trkpt lat="47.2982" lon="-2.54402">
        <ele>3.98</ele>
        <time>2017-03-30T11:28:42Z</time>
      </trkpt>
      <trkpt lat="47.29814" lon="-2.54412">
        <ele>6.87</ele>
        <time>2017-03-30T11:28:50Z</time>
      </trkpt>
      <trkpt lat="47.29809" lon="-2.54427">
        <ele>5.91</ele>
        <time>2017-03-30T11:28:59Z</time>
      </trkpt>
      <trkpt lat="47.29802" lon="-2.54439">
        <ele>2.54</ele>
        <time>2017-03-30T11:29:07Z</time>
      </trkpt>
      <trkpt lat="47.29795" lon="-2.54451">
        <ele>3.98</ele>
        <time>2017-03-30T11:29:17Z</time>
      </trkpt>
      <trkpt lat="47.29786" lon="-2.54462">
        <ele>6.87</ele>
        <time>2017-03-30T11:29:26Z</time>
      </trkpt>
      <trkpt lat="47.29777" lon="-2.54474">
        <ele>6.39</ele>
        <time>2017-03-30T11:29:35Z</time>
      </trkpt>
      <trkpt lat="47.29767" lon="-2.54483">
        <ele>5.91</ele>
        <time>2017-03-30T11:29:43Z</time>
      </trkpt>
      <trkpt lat="47.29757" lon="-2.5449">
        <ele>2.06</ele>
        <time>2017-03-30T11:29:51Z</time>
      </trkpt>
      <trkpt lat="47.29748" lon="-2.54499">
        <ele>5.91</ele>
        <time>2017-03-30T11:29:59Z</time>
      </trkpt>
      <trkpt lat="47.2974" lon="-2.54508">
        <ele>3.98</ele>
        <time>2017-03-30T11:30:08Z</time>
      </trkpt>
      <trkpt lat="47.29731" lon="-2.54517">
        <ele>2.06</ele>
        <time>2017-03-30T11:30:16Z</time>
      </trkpt>
      <trkpt lat="47.29722" lon="-2.54525">
        <ele>2.54</ele>
        <time>2017-03-30T11:30:24Z</time>
      </trkpt>
      <trkpt lat="47.29714" lon="-2.54531">
        <ele>2.54</ele>
        <time>2017-03-30T11:30:32Z</time>
      </trkpt>
      <trkpt lat="47.29705" lon="-2.54538">
        <ele>2.54</ele>
        <time>2017-03-30T11:30:40Z</time>
      </trkpt>
      <trkpt lat="47.29697" lon="-2.54547">
        <ele>3.98</ele>
        <time>2017-03-30T11:30:48Z</time>
      </trkpt>
      <trkpt lat="47.29689" lon="-2.54554">
        <ele>5.91</ele>
        <time>2017-03-30T11:30:56Z</time>
      </trkpt>
      <trkpt lat="47.2968" lon="-2.54561">
        <ele>2.54</ele>
        <time>2017-03-30T11:31:04Z</time>
      </trkpt>
      <trkpt lat="47.29672" lon="-2.54569">
        <ele>2.54</ele>
        <time>2017-03-30T11:31:12Z</time>
      </trkpt>
      <trkpt lat="47.29663" lon="-2.54576">
        <ele>3.02</ele>
        <time>2017-03-30T11:31:20Z</time>
      </trkpt>
      <trkpt lat="47.29654" lon="-2.54581">
        <ele>4.94</ele>
        <time>2017-03-30T11:31:28Z</time>
      </trkpt>
      <trkpt lat="47.29645" lon="-2.54586">
        <ele>4.94</ele>
        <time>2017-03-30T11:31:36Z</time>
      </trkpt>
      <trkpt lat="47.29636" lon="-2.54592">
        <ele>6.87</ele>
        <time>2017-03-30T11:31:44Z</time>
      </trkpt>
      <trkpt lat="47.29627" lon="-2.54597">
        <ele>5.42</ele>
        <time>2017-03-30T11:31:52Z</time>
      </trkpt>
      <trkpt lat="47.29618" lon="-2.54599">
        <ele>4.94</ele>
        <time>2017-03-30T11:32:00Z</time>
      </trkpt>
      <trkpt lat="47.29608" lon="-2.54603">
        <ele>5.42</ele>
        <time>2017-03-30T11:32:08Z</time>
      </trkpt>
      <trkpt lat="47.29599" lon="-2.54603">
        <ele>6.39</ele>
        <time>2017-03-30T11:32:16Z</time>
      </trkpt>
      <trkpt lat="47.29589" lon="-2.54606">
        <ele>6.39</ele>
        <time>2017-03-30T11:32:24Z</time>
      </trkpt>
      <trkpt lat="47.29579" lon="-2.54609">
        <ele>5.42</ele>
        <time>2017-03-30T11:32:32Z</time>
      </trkpt>
      <trkpt lat="47.2957" lon="-2.54612">
        <ele>4.94</ele>
        <time>2017-03-30T11:32:40Z</time>
      </trkpt>
      <trkpt lat="47.2956" lon="-2.54615">
        <ele>3.5</ele>
        <time>2017-03-30T11:32:48Z</time>
      </trkpt>
      <trkpt lat="47.2955" lon="-2.54618">
        <ele>4.46</ele>
        <time>2017-03-30T11:32:56Z</time>
      </trkpt>
      <trkpt lat="47.29541" lon="-2.54621">
        <ele>8.31</ele>
        <time>2017-03-30T11:33:03Z</time>
      </trkpt>
      <trkpt lat="47.29532" lon="-2.54624">
        <ele>3.5</ele>
        <time>2017-03-30T11:33:11Z</time>
      </trkpt>
      <trkpt lat="47.29523" lon="-2.54631">
        <ele>7.35</ele>
        <time>2017-03-30T11:33:19Z</time>
      </trkpt>
      <trkpt lat="47.29514" lon="-2.54637">
        <ele>3.98</ele>
        <time>2017-03-30T11:33:27Z</time>
      </trkpt>
      <trkpt lat="47.29506" lon="-2.54645">
        <ele>4.46</ele>
        <time>2017-03-30T11:33:35Z</time>
      </trkpt>
      <trkpt lat="47.29498" lon="-2.54654">
        <ele>5.91</ele>
        <time>2017-03-30T11:33:43Z</time>
      </trkpt>
      <trkpt lat="47.2949" lon="-2.54663">
        <ele>3.5</ele>
        <time>2017-03-30T11:33:52Z</time>
      </trkpt>
      <trkpt lat="47.29481" lon="-2.5467">
        <ele>6.39</ele>
        <time>2017-03-30T11:34:01Z</time>
      </trkpt>
      <trkpt lat="47.29472" lon="-2.54681">
        <ele>2.54</ele>
        <time>2017-03-30T11:34:09Z</time>
      </trkpt>
      <trkpt lat="47.29463" lon="-2.54683">
        <ele>5.91</ele>
        <time>2017-03-30T11:34:16Z</time>
      </trkpt>
      <trkpt lat="47.29455" lon="-2.54684">
        <ele>3.02</ele>
        <time>2017-03-30T11:34:23Z</time>
      </trkpt>
      <trkpt lat="47.29445" lon="-2.54685">
        <ele>6.87</ele>
        <time>2017-03-30T11:34:31Z</time>
      </trkpt>
      <trkpt lat="47.29436" lon="-2.54686">
        <ele>5.91</ele>
        <time>2017-03-30T11:34:39Z</time>
      </trkpt>
      <trkpt lat="47.29426" lon="-2.54686">
        <ele>7.83</ele>
        <time>2017-03-30T11:34:48Z</time>
      </trkpt>
      <trkpt lat="47.29416" lon="-2.54688">
        <ele>3.5</ele>
        <time>2017-03-30T11:34:56Z</time>
      </trkpt>
      <trkpt lat="47.29406" lon="-2.54689">
        <ele>4.46</ele>
        <time>2017-03-30T11:35:04Z</time>
      </trkpt>
      <trkpt lat="47.29396" lon="-2.54689">
        <ele>6.87</ele>
        <time>2017-03-30T11:35:12Z</time>
      </trkpt>
      <trkpt lat="47.29387" lon="-2.5469">
        <ele>4.94</ele>
        <time>2017-03-30T11:35:20Z</time>
      </trkpt>
      <trkpt lat="47.29377" lon="-2.54689">
        <ele>6.87</ele>
        <time>2017-03-30T11:35:28Z</time>
      </trkpt>
      <trkpt lat="47.29367" lon="-2.5469">
        <ele>5.42</ele>
        <time>2017-03-30T11:35:36Z</time>
      </trkpt>
      <trkpt lat="47.29358" lon="-2.54691">
        <ele>6.87</ele>
        <time>2017-03-30T11:35:59Z</time>
      </trkpt>
      <trkpt lat="47.29349" lon="-2.54691">
        <ele>5.91</ele>
        <time>2017-03-30T11:36:07Z</time>
      </trkpt>
      <trkpt lat="47.29339" lon="-2.54691">
        <ele>7.35</ele>
        <time>2017-03-30T11:36:15Z</time>
      </trkpt>
      <trkpt lat="47.29328" lon="-2.54691">
        <ele>9.27</ele>
        <time>2017-03-30T11:36:24Z</time>
      </trkpt>
      <trkpt lat="47.29319" lon="-2.54691">
        <ele>6.87</ele>
        <time>2017-03-30T11:36:32Z</time>
      </trkpt>
      <trkpt lat="47.29308" lon="-2.54694">
        <ele>3.5</ele>
        <time>2017-03-30T11:36:40Z</time>
      </trkpt>
      <trkpt lat="47.29299" lon="-2.54697">
        <ele>6.87</ele>
        <time>2017-03-30T11:36:48Z</time>
      </trkpt>
      <trkpt lat="47.29291" lon="-2.54704">
        <ele>6.87</ele>
        <time>2017-03-30T11:36:56Z</time>
      </trkpt>
      <trkpt lat="47.29283" lon="-2.5471">
        <ele>5.91</ele>
        <time>2017-03-30T11:37:04Z</time>
      </trkpt>
      <trkpt lat="47.29275" lon="-2.54717">
        <ele>6.39</ele>
        <time>2017-03-30T11:37:12Z</time>
      </trkpt>
      <trkpt lat="47.29266" lon="-2.54722">
        <ele>6.39</ele>
        <time>2017-03-30T11:37:20Z</time>
      </trkpt>
      <trkpt lat="47.29257" lon="-2.54721">
        <ele>6.39</ele>
        <time>2017-03-30T11:37:28Z</time>
      </trkpt>
      <trkpt lat="47.29248" lon="-2.54717">
        <ele>6.39</ele>
        <time>2017-03-30T11:37:36Z</time>
      </trkpt>
      <trkpt lat="47.29242" lon="-2.54706">
        <ele>5.42</ele>
        <time>2017-03-30T11:37:44Z</time>
      </trkpt>
      <trkpt lat="47.2924" lon="-2.54691">
        <ele>5.42</ele>
        <time>2017-03-30T11:37:53Z</time>
      </trkpt>
      <trkpt lat="47.29233" lon="-2.54683">
        <ele>6.87</ele>
        <time>2017-03-30T11:38:01Z</time>
      </trkpt>
      <trkpt lat="47.29227" lon="-2.54672">
        <ele>4.94</ele>
        <time>2017-03-30T11:38:19Z</time>
      </trkpt>
      <trkpt lat="47.29221" lon="-2.5466">
        <ele>5.42</ele>
        <time>2017-03-30T11:38:27Z</time>
      </trkpt>
      <trkpt lat="47.29216" lon="-2.54648">
        <ele>6.87</ele>
        <time>2017-03-30T11:38:34Z</time>
      </trkpt>
      <trkpt lat="47.2921" lon="-2.54637">
        <ele>3.98</ele>
        <time>2017-03-30T11:38:42Z</time>
      </trkpt>
      <trkpt lat="47.29203" lon="-2.54628">
        <ele>7.83</ele>
        <time>2017-03-30T11:38:49Z</time>
      </trkpt>
      <trkpt lat="47.29196" lon="-2.54618">
        <ele>4.46</ele>
        <time>2017-03-30T11:38:57Z</time>
      </trkpt>
      <trkpt lat="47.29187" lon="-2.54609">
        <ele>5.91</ele>
        <time>2017-03-30T11:39:05Z</time>
      </trkpt>
      <trkpt lat="47.29179" lon="-2.546">
        <ele>5.42</ele>
        <time>2017-03-30T11:39:13Z</time>
      </trkpt>
      <trkpt lat="47.29171" lon="-2.54592">
        <ele>6.39</ele>
        <time>2017-03-30T11:39:21Z</time>
      </trkpt>
      <trkpt lat="47.29162" lon="-2.54586">
        <ele>3.98</ele>
        <time>2017-03-30T11:39:29Z</time>
      </trkpt>
      <trkpt lat="47.29153" lon="-2.5458">
        <ele>6.39</ele>
        <time>2017-03-30T11:39:37Z</time>
      </trkpt>
      <trkpt lat="47.29144" lon="-2.54574">
        <ele>4.46</ele>
        <time>2017-03-30T11:39:45Z</time>
      </trkpt>
      <trkpt lat="47.29135" lon="-2.54568">
        <ele>5.91</ele>
        <time>2017-03-30T11:39:53Z</time>
      </trkpt>
      <trkpt lat="47.29126" lon="-2.54562">
        <ele>8.31</ele>
        <time>2017-03-30T11:40:01Z</time>
      </trkpt>
      <trkpt lat="47.29117" lon="-2.54555">
        <ele>6.39</ele>
        <time>2017-03-30T11:40:09Z</time>
      </trkpt>
      <trkpt lat="47.29109" lon="-2.54547">
        <ele>5.91</ele>
        <time>2017-03-30T11:40:17Z</time>
      </trkpt>
      <trkpt lat="47.29101" lon="-2.54539">
        <ele>5.42</ele>
        <time>2017-03-30T11:40:25Z</time>
      </trkpt>
      <trkpt lat="47.29094" lon="-2.54529">
        <ele>5.91</ele>
        <time>2017-03-30T11:40:34Z</time>
      </trkpt>
      <trkpt lat="47.29085" lon="-2.54528">
        <ele>5.91</ele>
        <time>2017-03-30T11:40:42Z</time>
      </trkpt>
      <trkpt lat="47.29076" lon="-2.54532">
        <ele>5.42</ele>
        <time>2017-03-30T11:40:50Z</time>
      </trkpt>
      <trkpt lat="47.29066" lon="-2.5454">
        <ele>5.91</ele>
        <time>2017-03-30T11:41:06Z</time>
      </trkpt>
      <trkpt lat="47.29057" lon="-2.54547">
        <ele>5.42</ele>
        <time>2017-03-30T11:41:13Z</time>
      </trkpt>
      <trkpt lat="47.29049" lon="-2.54555">
        <ele>5.42</ele>
        <time>2017-03-30T11:41:21Z</time>
      </trkpt>
      <trkpt lat="47.2904" lon="-2.54554">
        <ele>4.94</ele>
        <time>2017-03-30T11:41:32Z</time>
      </trkpt>
      <trkpt lat="47.29034" lon="-2.54542">
        <ele>4.94</ele>
        <time>2017-03-30T11:41:43Z</time>
      </trkpt>
      <trkpt lat="47.29033" lon="-2.54527">
        <ele>4.94</ele>
        <time>2017-03-30T11:42:00Z</time>
      </trkpt>
      <trkpt lat="47.29027" lon="-2.54516">
        <ele>5.42</ele>
        <time>2017-03-30T11:42:08Z</time>
      </trkpt>
      <trkpt lat="47.29021" lon="-2.54505">
        <ele>3.98</ele>
        <time>2017-03-30T11:42:16Z</time>
      </trkpt>
      <trkpt lat="47.29018" lon="-2.5449">
        <ele>3.5</ele>
        <time>2017-03-30T11:42:25Z</time>
      </trkpt>
      <trkpt lat="47.29023" lon="-2.54477">
        <ele>3.02</ele>
        <time>2017-03-30T11:42:33Z</time>
      </trkpt>
      <trkpt lat="47.29028" lon="-2.54466">
        <ele>5.91</ele>
        <time>2017-03-30T11:42:41Z</time>
      </trkpt>
      <trkpt lat="47.29034" lon="-2.54454">
        <ele>6.39</ele>
        <time>2017-03-30T11:42:50Z</time>
      </trkpt>
      <trkpt lat="47.2904" lon="-2.54444">
        <ele>3.98</ele>
        <time>2017-03-30T11:42:58Z</time>
      </trkpt>
      <trkpt lat="47.29046" lon="-2.5443">
        <ele>3.02</ele>
        <time>2017-03-30T11:43:07Z</time>
      </trkpt>
      <trkpt lat="47.29054" lon="-2.54422">
        <ele>4.94</ele>
        <time>2017-03-30T11:43:15Z</time>
      </trkpt>
      <trkpt lat="47.29063" lon="-2.54424">
        <ele>7.35</ele>
        <time>2017-03-30T11:43:24Z</time>
      </trkpt>
      <trkpt lat="47.29065" lon="-2.54415">
        <ele>6.87</ele>
        <time>2017-03-30T11:43:55Z</time>
      </trkpt>
      <trkpt lat="47.29068" lon="-2.54401">
        <ele>4.94</ele>
        <time>2017-03-30T11:44:03Z</time>
      </trkpt>
      <trkpt lat="47.29068" lon="-2.54386">
        <ele>7.35</ele>
        <time>2017-03-30T11:44:11Z</time>
      </trkpt>
      <trkpt lat="47.29067" lon="-2.5437">
        <ele>3.5</ele>
        <time>2017-03-30T11:44:19Z</time>
      </trkpt>
      <trkpt lat="47.29066" lon="-2.54356">
        <ele>4.94</ele>
        <time>2017-03-30T11:44:27Z</time>
      </trkpt>
      <trkpt lat="47.29063" lon="-2.54341">
        <ele>6.39</ele>
        <time>2017-03-30T11:44:35Z</time>
      </trkpt>
      <trkpt lat="47.2906" lon="-2.54326">
        <ele>4.46</ele>
        <time>2017-03-30T11:44:43Z</time>
      </trkpt>
      <trkpt lat="47.29056" lon="-2.54314">
        <ele>3.5</ele>
        <time>2017-03-30T11:44:50Z</time>
      </trkpt>
      <trkpt lat="47.29052" lon="-2.54301">
        <ele>4.94</ele>
        <time>2017-03-30T11:44:58Z</time>
      </trkpt>
      <trkpt lat="47.29048" lon="-2.54287">
        <ele>6.39</ele>
        <time>2017-03-30T11:45:06Z</time>
      </trkpt>
      <trkpt lat="47.29042" lon="-2.54275">
        <ele>5.42</ele>
        <time>2017-03-30T11:45:14Z</time>
      </trkpt>
      <trkpt lat="47.29039" lon="-2.54262">
        <ele>4.94</ele>
        <time>2017-03-30T11:45:22Z</time>
      </trkpt>
      <trkpt lat="47.29034" lon="-2.54249">
        <ele>5.91</ele>
        <time>2017-03-30T11:45:30Z</time>
      </trkpt>
      <trkpt lat="47.29029" lon="-2.54237">
        <ele>7.35</ele>
        <time>2017-03-30T11:45:38Z</time>
      </trkpt>
      <trkpt lat="47.29025" lon="-2.54224">
        <ele>7.35</ele>
        <time>2017-03-30T11:45:46Z</time>
      </trkpt>
      <trkpt lat="47.2902" lon="-2.54211">
        <ele>6.39</ele>
        <time>2017-03-30T11:45:54Z</time>
      </trkpt>
      <trkpt lat="47.29015" lon="-2.54198">
        <ele>5.91</ele>
        <time>2017-03-30T11:46:02Z</time>
      </trkpt>
      <trkpt lat="47.2901" lon="-2.54185">
        <ele>6.39</ele>
        <time>2017-03-30T11:46:10Z</time>
      </trkpt>
      <trkpt lat="47.29007" lon="-2.54171">
        <ele>6.39</ele>
        <time>2017-03-30T11:46:18Z</time>
      </trkpt>
      <trkpt lat="47.29002" lon="-2.54158">
        <ele>5.42</ele>
        <time>2017-03-30T11:46:26Z</time>
      </trkpt>
      <trkpt lat="47.28999" lon="-2.54144">
        <ele>6.39</ele>
        <time>2017-03-30T11:46:34Z</time>
      </trkpt>
      <trkpt lat="47.28996" lon="-2.54131">
        <ele>7.83</ele>
        <time>2017-03-30T11:46:42Z</time>
      </trkpt>
      <trkpt lat="47.28991" lon="-2.54118">
        <ele>5.91</ele>
        <time>2017-03-30T11:46:50Z</time>
      </trkpt>
      <trkpt lat="47.28988" lon="-2.54105">
        <ele>7.83</ele>
        <time>2017-03-30T11:46:58Z</time>
      </trkpt>
      <trkpt lat="47.28983" lon="-2.54091">
        <ele>5.42</ele>
        <time>2017-03-30T11:47:06Z</time>
      </trkpt>
      <trkpt lat="47.28979" lon="-2.5408">
        <ele>7.35</ele>
        <time>2017-03-30T11:47:13Z</time>
      </trkpt>
      <trkpt lat="47.28975" lon="-2.54067">
        <ele>7.83</ele>
        <time>2017-03-30T11:47:21Z</time>
      </trkpt>
      <trkpt lat="47.28973" lon="-2.54053">
        <ele>9.75</ele>
        <time>2017-03-30T11:47:29Z</time>
      </trkpt>
      <trkpt lat="47.28969" lon="-2.54039">
        <ele>7.35</ele>
        <time>2017-03-30T11:47:37Z</time>
      </trkpt>
      <trkpt lat="47.28966" lon="-2.54026">
        <ele>9.27</ele>
        <time>2017-03-30T11:47:45Z</time>
      </trkpt>
      <trkpt lat="47.28963" lon="-2.54012">
        <ele>10.23</ele>
        <time>2017-03-30T11:47:53Z</time>
      </trkpt>
      <trkpt lat="47.28959" lon="-2.53998">
        <ele>10.23</ele>
        <time>2017-03-30T11:48:01Z</time>
      </trkpt>
      <trkpt lat="47.28956" lon="-2.53984">
        <ele>8.31</ele>
        <time>2017-03-30T11:48:09Z</time>
      </trkpt>
      <trkpt lat="47.28953" lon="-2.53971">
        <ele>9.27</ele>
        <time>2017-03-30T11:48:17Z</time>
      </trkpt>
      <trkpt lat="47.28948" lon="-2.53958">
        <ele>7.83</ele>
        <time>2017-03-30T11:48:25Z</time>
      </trkpt>
      <trkpt lat="47.28945" lon="-2.53946">
        <ele>9.27</ele>
        <time>2017-03-30T11:48:32Z</time>
      </trkpt>
      <trkpt lat="47.28942" lon="-2.53933">
        <ele>10.23</ele>
        <time>2017-03-30T11:48:40Z</time>
      </trkpt>
      <trkpt lat="47.28942" lon="-2.53919">
        <ele>7.83</ele>
        <time>2017-03-30T11:48:48Z</time>
      </trkpt>
      <trkpt lat="47.2894" lon="-2.53906">
        <ele>9.27</ele>
        <time>2017-03-30T11:48:55Z</time>
      </trkpt>
      <trkpt lat="47.28937" lon="-2.53892">
        <ele>9.27</ele>
        <time>2017-03-30T11:49:03Z</time>
      </trkpt>
      <trkpt lat="47.28936" lon="-2.53879">
        <ele>9.75</ele>
        <time>2017-03-30T11:49:11Z</time>
      </trkpt>
      <trkpt lat="47.28933" lon="-2.53864">
        <ele>10.23</ele>
        <time>2017-03-30T11:49:19Z</time>
      </trkpt>
      <trkpt lat="47.28931" lon="-2.53851">
        <ele>12.15</ele>
        <time>2017-03-30T11:49:26Z</time>
      </trkpt>
      <trkpt lat="47.2893" lon="-2.53838">
        <ele>12.63</ele>
        <time>2017-03-30T11:49:33Z</time>
      </trkpt>
      <trkpt lat="47.28928" lon="-2.53825">
        <ele>13.6</ele>
        <time>2017-03-30T11:49:40Z</time>
      </trkpt>
      <trkpt lat="47.28927" lon="-2.53811">
        <ele>10.71</ele>
        <time>2017-03-30T11:49:48Z</time>
      </trkpt>
      <trkpt lat="47.28925" lon="-2.53796">
        <ele>10.71</ele>
        <time>2017-03-30T11:49:56Z</time>
      </trkpt>
      <trkpt lat="47.28923" lon="-2.53783">
        <ele>13.6</ele>
        <time>2017-03-30T11:50:04Z</time>
      </trkpt>
      <trkpt lat="47.2892" lon="-2.53769">
        <ele>12.15</ele>
        <time>2017-03-30T11:50:12Z</time>
      </trkpt>
      <trkpt lat="47.28918" lon="-2.53754">
        <ele>12.63</ele>
        <time>2017-03-30T11:50:20Z</time>
      </trkpt>
      <trkpt lat="47.28916" lon="-2.53741">
        <ele>15.52</ele>
        <time>2017-03-30T11:50:28Z</time>
      </trkpt>
      <trkpt lat="47.28915" lon="-2.53727">
        <ele>13.12</ele>
        <time>2017-03-30T11:50:37Z</time>
      </trkpt>
      <trkpt lat="47.28913" lon="-2.53712">
        <ele>16.48</ele>
        <time>2017-03-30T11:50:46Z</time>
      </trkpt>
      <trkpt lat="47.28909" lon="-2.53699">
        <ele>13.12</ele>
        <time>2017-03-30T11:50:55Z</time>
      </trkpt>
      <trkpt lat="47.28907" lon="-2.53686">
        <ele>12.63</ele>
        <time>2017-03-30T11:51:03Z</time>
      </trkpt>
      <trkpt lat="47.28905" lon="-2.53672">
        <ele>14.56</ele>
        <time>2017-03-30T11:51:12Z</time>
      </trkpt>
      <trkpt lat="47.28903" lon="-2.53659">
        <ele>11.67</ele>
        <time>2017-03-30T11:51:20Z</time>
      </trkpt>
      <trkpt lat="47.28899" lon="-2.53646">
        <ele>14.08</ele>
        <time>2017-03-30T11:51:29Z</time>
      </trkpt>
      <trkpt lat="47.28895" lon="-2.53632">
        <ele>13.12</ele>
        <time>2017-03-30T11:51:37Z</time>
      </trkpt>
      <trkpt lat="47.28892" lon="-2.53618">
        <ele>16.96</ele>
        <time>2017-03-30T11:51:45Z</time>
      </trkpt>
      <trkpt lat="47.28889" lon="-2.53605">
        <ele>14.56</ele>
        <time>2017-03-30T11:51:53Z</time>
      </trkpt>
      <trkpt lat="47.28884" lon="-2.53593">
        <ele>14.08</ele>
        <time>2017-03-30T11:52:01Z</time>
      </trkpt>
      <trkpt lat="47.2888" lon="-2.53581">
        <ele>15.52</ele>
        <time>2017-03-30T11:52:09Z</time>
      </trkpt>
      <trkpt lat="47.28876" lon="-2.53569">
        <ele>16.48</ele>
        <time>2017-03-30T11:52:17Z</time>
      </trkpt>
      <trkpt lat="47.28872" lon="-2.53556">
        <ele>14.08</ele>
        <time>2017-03-30T11:52:25Z</time>
      </trkpt>
      <trkpt lat="47.28869" lon="-2.53544">
        <ele>16</ele>
        <time>2017-03-30T11:52:33Z</time>
      </trkpt>
      <trkpt lat="47.28866" lon="-2.53529">
        <ele>15.04</ele>
        <time>2017-03-30T11:52:42Z</time>
      </trkpt>
      <trkpt lat="47.28863" lon="-2.53516">
        <ele>13.6</ele>
        <time>2017-03-30T11:52:50Z</time>
      </trkpt>
      <trkpt lat="47.28862" lon="-2.53502">
        <ele>14.56</ele>
        <time>2017-03-30T11:52:58Z</time>
      </trkpt>
      <trkpt lat="47.28862" lon="-2.53487">
        <ele>15.52</ele>
        <time>2017-03-30T11:53:06Z</time>
      </trkpt>
      <trkpt lat="47.28861" lon="-2.53473">
        <ele>16.48</ele>
        <time>2017-03-30T11:53:15Z</time>
      </trkpt>
      <trkpt lat="47.2886" lon="-2.53459">
        <ele>15.52</ele>
        <time>2017-03-30T11:53:23Z</time>
      </trkpt>
      <trkpt lat="47.28859" lon="-2.53445">
        <ele>16.96</ele>
        <time>2017-03-30T11:53:31Z</time>
      </trkpt>
      <trkpt lat="47.28859" lon="-2.53431">
        <ele>15.52</ele>
        <time>2017-03-30T11:53:39Z</time>
      </trkpt>
      <trkpt lat="47.28859" lon="-2.53419">
        <ele>15.52</ele>
        <time>2017-03-30T11:53:47Z</time>
      </trkpt>
      <trkpt lat="47.28859" lon="-2.53406">
        <ele>17.92</ele>
        <time>2017-03-30T11:53:56Z</time>
      </trkpt>
      <trkpt lat="47.28858" lon="-2.53392">
        <ele>17.44</ele>
        <time>2017-03-30T11:54:05Z</time>
      </trkpt>
      <trkpt lat="47.28855" lon="-2.53378">
        <ele>18.4</ele>
        <time>2017-03-30T11:54:14Z</time>
      </trkpt>
      <trkpt lat="47.28853" lon="-2.53364">
        <ele>16.96</ele>
        <time>2017-03-30T11:54:22Z</time>
      </trkpt>
      <trkpt lat="47.28849" lon="-2.53352">
        <ele>15.52</ele>
        <time>2017-03-30T11:54:30Z</time>
      </trkpt>
      <trkpt lat="47.28845" lon="-2.53339">
        <ele>16.48</ele>
        <time>2017-03-30T11:55:19Z</time>
      </trkpt>
      <trkpt lat="47.28843" lon="-2.53325">
        <ele>16.96</ele>
        <time>2017-03-30T11:55:27Z</time>
      </trkpt>
      <trkpt lat="47.28841" lon="-2.53311">
        <ele>17.92</ele>
        <time>2017-03-30T11:55:36Z</time>
      </trkpt>
      <trkpt lat="47.2884" lon="-2.53298">
        <ele>17.44</ele>
        <time>2017-03-30T11:55:44Z</time>
      </trkpt>
      <trkpt lat="47.28837" lon="-2.53285">
        <ele>17.92</ele>
        <time>2017-03-30T11:55:52Z</time>
      </trkpt>
      <trkpt lat="47.28833" lon="-2.53273">
        <ele>18.4</ele>
        <time>2017-03-30T11:56:01Z</time>
      </trkpt>
      <trkpt lat="47.28831" lon="-2.53258">
        <ele>17.44</ele>
        <time>2017-03-30T11:56:10Z</time>
      </trkpt>
      <trkpt lat="47.28832" lon="-2.53244">
        <ele>16.96</ele>
        <time>2017-03-30T11:56:19Z</time>
      </trkpt>
      <trkpt lat="47.28827" lon="-2.53233">
        <ele>16.96</ele>
        <time>2017-03-30T11:56:29Z</time>
      </trkpt>
      <trkpt lat="47.28818" lon="-2.53225">
        <ele>16.96</ele>
        <time>2017-03-30T11:56:38Z</time>
      </trkpt>
      <trkpt lat="47.28809" lon="-2.53218">
        <ele>16.96</ele>
        <time>2017-03-30T11:56:47Z</time>
      </trkpt>
      <trkpt lat="47.28801" lon="-2.5321">
        <ele>17.44</ele>
        <time>2017-03-30T11:56:56Z</time>
      </trkpt>
      <trkpt lat="47.28793" lon="-2.53202">
        <ele>17.92</ele>
        <time>2017-03-30T11:57:05Z</time>
      </trkpt>
      <trkpt lat="47.28785" lon="-2.53193">
        <ele>17.92</ele>
        <time>2017-03-30T11:57:13Z</time>
      </trkpt>
      <trkpt lat="47.28777" lon="-2.53186">
        <ele>16</ele>
        <time>2017-03-30T11:57:21Z</time>
      </trkpt>
      <trkpt lat="47.2877" lon="-2.53178">
        <ele>15.04</ele>
        <time>2017-03-30T11:57:29Z</time>
      </trkpt>
      <trkpt lat="47.28763" lon="-2.53167">
        <ele>15.52</ele>
        <time>2017-03-30T11:57:37Z</time>
      </trkpt>
      <trkpt lat="47.28758" lon="-2.53156">
        <ele>17.44</ele>
        <time>2017-03-30T11:57:45Z</time>
      </trkpt>
      <trkpt lat="47.28754" lon="-2.53143">
        <ele>17.44</ele>
        <time>2017-03-30T11:57:53Z</time>
      </trkpt>
      <trkpt lat="47.28751" lon="-2.5313">
        <ele>17.92</ele>
        <time>2017-03-30T11:58:01Z</time>
      </trkpt>
      <trkpt lat="47.28749" lon="-2.53115">
        <ele>17.44</ele>
        <time>2017-03-30T11:58:09Z</time>
      </trkpt>
      <trkpt lat="47.28747" lon="-2.53102">
        <ele>16.48</ele>
        <time>2017-03-30T11:58:17Z</time>
      </trkpt>
      <trkpt lat="47.28746" lon="-2.53088">
        <ele>16.96</ele>
        <time>2017-03-30T11:58:25Z</time>
      </trkpt>
      <trkpt lat="47.28746" lon="-2.53074">
        <ele>15.04</ele>
        <time>2017-03-30T11:58:34Z</time>
      </trkpt>
      <trkpt lat="47.28744" lon="-2.53076">
        <ele>18.4</ele>
        <time>2017-03-30T11:59:46Z</time>
      </trkpt>
      <trkpt lat="47.28744" lon="-2.53076">
        <ele>16.96</ele>
        <time>2017-03-30T12:00:01Z</time>
      </trkpt>
      <trkpt lat="47.28744" lon="-2.53063">
        <ele>17.92</ele>
        <time>2017-03-30T12:00:21Z</time>
      </trkpt>
      <trkpt lat="47.28742" lon="-2.53048">
        <ele>14.08</ele>
        <time>2017-03-30T12:00:29Z</time>
      </trkpt>
      <trkpt lat="47.28741" lon="-2.53034">
        <ele>15.04</ele>
        <time>2017-03-30T12:00:37Z</time>
      </trkpt>
      <trkpt lat="47.28742" lon="-2.5302">
        <ele>17.92</ele>
        <time>2017-03-30T12:00:45Z</time>
      </trkpt>
      <trkpt lat="47.28742" lon="-2.53007">
        <ele>16.96</ele>
        <time>2017-03-30T12:00:53Z</time>
      </trkpt>
      <trkpt lat="47.28745" lon="-2.52994">
        <ele>17.44</ele>
        <time>2017-03-30T12:01:01Z</time>
      </trkpt>
      <trkpt lat="47.28747" lon="-2.52981">
        <ele>16.48</ele>
        <time>2017-03-30T12:01:09Z</time>
      </trkpt>
      <trkpt lat="47.28744" lon="-2.52968">
        <ele>17.44</ele>
        <time>2017-03-30T12:01:17Z</time>
      </trkpt>
      <trkpt lat="47.28742" lon="-2.52955">
        <ele>16.96</ele>
        <time>2017-03-30T12:01:25Z</time>
      </trkpt>
      <trkpt lat="47.28741" lon="-2.52941">
        <ele>16</ele>
        <time>2017-03-30T12:01:33Z</time>
      </trkpt>
      <trkpt lat="47.28741" lon="-2.52927">
        <ele>14.56</ele>
        <time>2017-03-30T12:01:41Z</time>
      </trkpt>
      <trkpt lat="47.28738" lon="-2.52914">
        <ele>15.52</ele>
        <time>2017-03-30T12:01:51Z</time>
      </trkpt>
      <trkpt lat="47.28736" lon="-2.529">
        <ele>15.52</ele>
        <time>2017-03-30T12:02:06Z</time>
      </trkpt>
      <trkpt lat="47.28734" lon="-2.52887">
        <ele>16</ele>
        <time>2017-03-30T12:02:14Z</time>
      </trkpt>
      <trkpt lat="47.28733" lon="-2.52872">
        <ele>14.08</ele>
        <time>2017-03-30T12:02:22Z</time>
      </trkpt>
      <trkpt lat="47.28733" lon="-2.52859">
        <ele>15.04</ele>
        <time>2017-03-30T12:02:31Z</time>
      </trkpt>
      <trkpt lat="47.28741" lon="-2.52856">
        <ele>15.04</ele>
        <time>2017-03-30T12:02:40Z</time>
      </trkpt>
      <trkpt lat="47.28746" lon="-2.52868">
        <ele>16</ele>
        <time>2017-03-30T12:02:48Z</time>
      </trkpt>
      <trkpt lat="47.28749" lon="-2.52881">
        <ele>16.96</ele>
        <time>2017-03-30T12:02:56Z</time>
      </trkpt>
      <trkpt lat="47.28747" lon="-2.52876">
        <ele>15.52</ele>
        <time>2017-03-30T12:03:09Z</time>
      </trkpt>
      <trkpt lat="47.28744" lon="-2.52863">
        <ele>16</ele>
        <time>2017-03-30T12:03:17Z</time>
      </trkpt>
      <trkpt lat="47.28736" lon="-2.52855">
        <ele>16</ele>
        <time>2017-03-30T12:03:25Z</time>
      </trkpt>
      <trkpt lat="47.2873" lon="-2.52845">
        <ele>16.96</ele>
        <time>2017-03-30T12:03:33Z</time>
      </trkpt>
      <trkpt lat="47.28727" lon="-2.5283">
        <ele>16</ele>
        <time>2017-03-30T12:03:41Z</time>
      </trkpt>
      <trkpt lat="47.28726" lon="-2.52816">
        <ele>12.63</ele>
        <time>2017-03-30T12:03:49Z</time>
      </trkpt>
      <trkpt lat="47.28723" lon="-2.52803">
        <ele>11.19</ele>
        <time>2017-03-30T12:03:57Z</time>
      </trkpt>
      <trkpt lat="47.2872" lon="-2.52789">
        <ele>11.67</ele>
        <time>2017-03-30T12:04:05Z</time>
      </trkpt>
      <trkpt lat="47.28718" lon="-2.52776">
        <ele>14.08</ele>
        <time>2017-03-30T12:04:12Z</time>
      </trkpt>
      <trkpt lat="47.28717" lon="-2.52762">
        <ele>12.63</ele>
        <time>2017-03-30T12:04:20Z</time>
      </trkpt>
      <trkpt lat="47.28714" lon="-2.52748">
        <ele>12.63</ele>
        <time>2017-03-30T12:04:28Z</time>
      </trkpt>
      <trkpt lat="47.28712" lon="-2.52733">
        <ele>10.23</ele>
        <time>2017-03-30T12:04:36Z</time>
      </trkpt>
      <trkpt lat="47.28712" lon="-2.52718">
        <ele>12.63</ele>
        <time>2017-03-30T12:04:44Z</time>
      </trkpt>
      <trkpt lat="47.28713" lon="-2.52704">
        <ele>8.31</ele>
        <time>2017-03-30T12:04:52Z</time>
      </trkpt>
      <trkpt lat="47.28715" lon="-2.5269">
        <ele>9.75</ele>
        <time>2017-03-30T12:05:06Z</time>
      </trkpt>
      <trkpt lat="47.28717" lon="-2.52676">
        <ele>12.15</ele>
        <time>2017-03-30T12:05:14Z</time>
      </trkpt>
      <trkpt lat="47.28717" lon="-2.52663">
        <ele>10.71</ele>
        <time>2017-03-30T12:05:22Z</time>
      </trkpt>
      <trkpt lat="47.28713" lon="-2.52648">
        <ele>11.19</ele>
        <time>2017-03-30T12:05:30Z</time>
      </trkpt>
      <trkpt lat="47.2871" lon="-2.52635">
        <ele>11.19</ele>
        <time>2017-03-30T12:05:38Z</time>
      </trkpt>
      <trkpt lat="47.28705" lon="-2.52623">
        <ele>11.19</ele>
        <time>2017-03-30T12:05:46Z</time>
      </trkpt>
      <trkpt lat="47.287" lon="-2.52612">
        <ele>8.31</ele>
        <time>2017-03-30T12:05:55Z</time>
      </trkpt>
      <trkpt lat="47.28697" lon="-2.52599">
        <ele>9.75</ele>
        <time>2017-03-30T12:06:04Z</time>
      </trkpt>
      <trkpt lat="47.28697" lon="-2.52584">
        <ele>10.23</ele>
        <time>2017-03-30T12:06:13Z</time>
      </trkpt>
      <trkpt lat="47.28696" lon="-2.5257">
        <ele>9.75</ele>
        <time>2017-03-30T12:06:21Z</time>
      </trkpt>
      <trkpt lat="47.28701" lon="-2.52556">
        <ele>9.75</ele>
        <time>2017-03-30T12:06:29Z</time>
      </trkpt>
      <trkpt lat="47.28706" lon="-2.52547">
        <ele>8.79</ele>
        <time>2017-03-30T12:06:37Z</time>
      </trkpt>
      <trkpt lat="47.28714" lon="-2.52538">
        <ele>8.31</ele>
        <time>2017-03-30T12:06:46Z</time>
      </trkpt>
      <trkpt lat="47.28714" lon="-2.52523">
        <ele>7.35</ele>
        <time>2017-03-30T12:06:55Z</time>
      </trkpt>
      <trkpt lat="47.2871" lon="-2.52509">
        <ele>9.27</ele>
        <time>2017-03-30T12:07:03Z</time>
      </trkpt>
      <trkpt lat="47.28715" lon="-2.52497">
        <ele>8.31</ele>
        <time>2017-03-30T12:07:12Z</time>
      </trkpt>
      <trkpt lat="47.2872" lon="-2.52485">
        <ele>10.71</ele>
        <time>2017-03-30T12:07:22Z</time>
      </trkpt>
      <trkpt lat="47.28724" lon="-2.52473">
        <ele>10.23</ele>
        <time>2017-03-30T12:07:31Z</time>
      </trkpt>
      <trkpt lat="47.28728" lon="-2.52461">
        <ele>11.19</ele>
        <time>2017-03-30T12:07:41Z</time>
      </trkpt>
      <trkpt lat="47.28731" lon="-2.52447">
        <ele>9.75</ele>
        <time>2017-03-30T12:07:51Z</time>
      </trkpt>
      <trkpt lat="47.28736" lon="-2.52435">
        <ele>10.71</ele>
        <time>2017-03-30T12:08:00Z</time>
      </trkpt>
      <trkpt lat="47.28741" lon="-2.52423">
        <ele>13.12</ele>
        <time>2017-03-30T12:08:15Z</time>
      </trkpt>
      <trkpt lat="47.28742" lon="-2.52409">
        <ele>11.19</ele>
        <time>2017-03-30T12:08:24Z</time>
      </trkpt>
      <trkpt lat="47.28738" lon="-2.52397">
        <ele>11.67</ele>
        <time>2017-03-30T12:08:32Z</time>
      </trkpt>
      <trkpt lat="47.28735" lon="-2.52383">
        <ele>12.15</ele>
        <time>2017-03-30T12:08:40Z</time>
      </trkpt>
      <trkpt lat="47.28732" lon="-2.5237">
        <ele>11.19</ele>
        <time>2017-03-30T12:08:50Z</time>
      </trkpt>
      <trkpt lat="47.28724" lon="-2.52362">
        <ele>14.08</ele>
        <time>2017-03-30T12:08:58Z</time>
      </trkpt>
      <trkpt lat="47.28721" lon="-2.52347">
        <ele>14.08</ele>
        <time>2017-03-30T12:09:06Z</time>
      </trkpt>
      <trkpt lat="47.28721" lon="-2.52333">
        <ele>11.19</ele>
        <time>2017-03-30T12:09:14Z</time>
      </trkpt>
      <trkpt lat="47.28724" lon="-2.5232">
        <ele>14.56</ele>
        <time>2017-03-30T12:09:23Z</time>
      </trkpt>
      <trkpt lat="47.28725" lon="-2.52305">
        <ele>14.08</ele>
        <time>2017-03-30T12:09:32Z</time>
      </trkpt>
      <trkpt lat="47.2872" lon="-2.52292">
        <ele>13.12</ele>
        <time>2017-03-30T12:09:41Z</time>
      </trkpt>
      <trkpt lat="47.28713" lon="-2.52281">
        <ele>13.12</ele>
        <time>2017-03-30T12:09:50Z</time>
      </trkpt>
      <trkpt lat="47.28709" lon="-2.52268">
        <ele>12.15</ele>
        <time>2017-03-30T12:09:59Z</time>
      </trkpt>
      <trkpt lat="47.28709" lon="-2.52253">
        <ele>13.12</ele>
        <time>2017-03-30T12:10:07Z</time>
      </trkpt>
      <trkpt lat="47.28708" lon="-2.52238">
        <ele>12.63</ele>
        <time>2017-03-30T12:10:16Z</time>
      </trkpt>
      <trkpt lat="47.28706" lon="-2.52225">
        <ele>13.12</ele>
        <time>2017-03-30T12:10:25Z</time>
      </trkpt>
      <trkpt lat="47.287" lon="-2.52217">
        <ele>13.6</ele>
        <time>2017-03-30T12:10:35Z</time>
      </trkpt>
      <trkpt lat="47.28692" lon="-2.52225">
        <ele>14.08</ele>
        <time>2017-03-30T12:10:45Z</time>
      </trkpt>
      <trkpt lat="47.28684" lon="-2.52233">
        <ele>13.12</ele>
        <time>2017-03-30T12:10:55Z</time>
      </trkpt>
      <trkpt lat="47.28676" lon="-2.52232">
        <ele>12.63</ele>
        <time>2017-03-30T12:11:03Z</time>
      </trkpt>
      <trkpt lat="47.2867" lon="-2.52221">
        <ele>11.67</ele>
        <time>2017-03-30T12:11:18Z</time>
      </trkpt>
      <trkpt lat="47.2866" lon="-2.52212">
        <ele>13.6</ele>
        <time>2017-03-30T12:11:27Z</time>
      </trkpt>
      <trkpt lat="47.28652" lon="-2.52206">
        <ele>10.71</ele>
        <time>2017-03-30T12:11:35Z</time>
      </trkpt>
      <trkpt lat="47.28645" lon="-2.52197">
        <ele>13.6</ele>
        <time>2017-03-30T12:11:43Z</time>
      </trkpt>
      <trkpt lat="47.28635" lon="-2.52194">
        <ele>13.12</ele>
        <time>2017-03-30T12:11:51Z</time>
      </trkpt>
      <trkpt lat="47.28627" lon="-2.52187">
        <ele>12.15</ele>
        <time>2017-03-30T12:12:01Z</time>
      </trkpt>
      <trkpt lat="47.28628" lon="-2.52175">
        <ele>11.67</ele>
        <time>2017-03-30T12:12:19Z</time>
      </trkpt>
      <trkpt lat="47.28633" lon="-2.52163">
        <ele>14.08</ele>
        <time>2017-03-30T12:12:28Z</time>
      </trkpt>
      <trkpt lat="47.28641" lon="-2.52158">
        <ele>13.12</ele>
        <time>2017-03-30T12:12:36Z</time>
      </trkpt>
      <trkpt lat="47.28649" lon="-2.52152">
        <ele>14.08</ele>
        <time>2017-03-30T12:12:44Z</time>
      </trkpt>
      <trkpt lat="47.28651" lon="-2.52139">
        <ele>14.56</ele>
        <time>2017-03-30T12:12:53Z</time>
      </trkpt>
      <trkpt lat="47.28645" lon="-2.52128">
        <ele>12.63</ele>
        <time>2017-03-30T12:13:02Z</time>
      </trkpt>
      <trkpt lat="47.28647" lon="-2.52115">
        <ele>14.08</ele>
        <time>2017-03-30T12:13:11Z</time>
      </trkpt>
      <trkpt lat="47.28653" lon="-2.52104">
        <ele>10.71</ele>
        <time>2017-03-30T12:13:19Z</time>
      </trkpt>
      <trkpt lat="47.28656" lon="-2.52091">
        <ele>11.19</ele>
        <time>2017-03-30T12:13:27Z</time>
      </trkpt>
      <trkpt lat="47.28652" lon="-2.5208">
        <ele>10.71</ele>
        <time>2017-03-30T12:13:35Z</time>
      </trkpt>
      <trkpt lat="47.28645" lon="-2.52074">
        <ele>11.19</ele>
        <time>2017-03-30T12:13:43Z</time>
      </trkpt>
      <trkpt lat="47.28636" lon="-2.52069">
        <ele>12.63</ele>
        <time>2017-03-30T12:13:51Z</time>
      </trkpt>
      <trkpt lat="47.28637" lon="-2.52056">
        <ele>11.67</ele>
        <time>2017-03-30T12:13:59Z</time>
      </trkpt>
      <trkpt lat="47.28641" lon="-2.52044">
        <ele>12.15</ele>
        <time>2017-03-30T12:14:08Z</time>
      </trkpt>
      <trkpt lat="47.28637" lon="-2.52033">
        <ele>12.15</ele>
        <time>2017-03-30T12:14:16Z</time>
      </trkpt>
      <trkpt lat="47.28629" lon="-2.52023">
        <ele>12.63</ele>
        <time>2017-03-30T12:14:24Z</time>
      </trkpt>
      <trkpt lat="47.28622" lon="-2.52014">
        <ele>12.63</ele>
        <time>2017-03-30T12:14:32Z</time>
      </trkpt>
      <trkpt lat="47.28618" lon="-2.52002">
        <ele>12.15</ele>
        <time>2017-03-30T12:14:40Z</time>
      </trkpt>
      <trkpt lat="47.28615" lon="-2.51989">
        <ele>10.23</ele>
        <time>2017-03-30T12:14:48Z</time>
      </trkpt>
      <trkpt lat="47.28614" lon="-2.51975">
        <ele>11.19</ele>
        <time>2017-03-30T12:14:56Z</time>
      </trkpt>
      <trkpt lat="47.28612" lon="-2.51961">
        <ele>8.31</ele>
        <time>2017-03-30T12:15:05Z</time>
      </trkpt>
      <trkpt lat="47.28612" lon="-2.51948">
        <ele>10.23</ele>
        <time>2017-03-30T12:15:13Z</time>
      </trkpt>
      <trkpt lat="47.28618" lon="-2.51935">
        <ele>9.75</ele>
        <time>2017-03-30T12:15:22Z</time>
      </trkpt>
      <trkpt lat="47.2862" lon="-2.51922">
        <ele>8.31</ele>
        <time>2017-03-30T12:15:30Z</time>
      </trkpt>
      <trkpt lat="47.28623" lon="-2.51909">
        <ele>7.83</ele>
        <time>2017-03-30T12:15:38Z</time>
      </trkpt>
      <trkpt lat="47.28623" lon="-2.51894">
        <ele>9.75</ele>
        <time>2017-03-30T12:15:47Z</time>
      </trkpt>
      <trkpt lat="47.2862" lon="-2.51881">
        <ele>9.27</ele>
        <time>2017-03-30T12:15:56Z</time>
      </trkpt>
      <trkpt lat="47.28616" lon="-2.51868">
        <ele>7.83</ele>
        <time>2017-03-30T12:16:05Z</time>
      </trkpt>
      <trkpt lat="47.2861" lon="-2.51857">
        <ele>8.79</ele>
        <time>2017-03-30T12:16:18Z</time>
      </trkpt>
      <trkpt lat="47.28603" lon="-2.51847">
        <ele>9.75</ele>
        <time>2017-03-30T12:16:26Z</time>
      </trkpt>
      <trkpt lat="47.28597" lon="-2.51836">
        <ele>8.31</ele>
        <time>2017-03-30T12:16:34Z</time>
      </trkpt>
      <trkpt lat="47.28591" lon="-2.51824">
        <ele>9.27</ele>
        <time>2017-03-30T12:16:43Z</time>
      </trkpt>
      <trkpt lat="47.28583" lon="-2.51816">
        <ele>7.83</ele>
        <time>2017-03-30T12:16:51Z</time>
      </trkpt>
      <trkpt lat="47.28574" lon="-2.51808">
        <ele>8.79</ele>
        <time>2017-03-30T12:17:00Z</time>
      </trkpt>
      <trkpt lat="47.28568" lon="-2.51799">
        <ele>10.71</ele>
        <time>2017-03-30T12:17:08Z</time>
      </trkpt>
      <trkpt lat="47.28561" lon="-2.51791">
        <ele>9.75</ele>
        <time>2017-03-30T12:17:16Z</time>
      </trkpt>
      <trkpt lat="47.28555" lon="-2.51781">
        <ele>11.67</ele>
        <time>2017-03-30T12:17:32Z</time>
      </trkpt>
      <trkpt lat="47.28552" lon="-2.51767">
        <ele>9.27</ele>
        <time>2017-03-30T12:17:41Z</time>
      </trkpt>
      <trkpt lat="47.28548" lon="-2.51754">
        <ele>7.83</ele>
        <time>2017-03-30T12:17:49Z</time>
      </trkpt>
      <trkpt lat="47.28546" lon="-2.51739">
        <ele>7.35</ele>
        <time>2017-03-30T12:17:57Z</time>
      </trkpt>
      <trkpt lat="47.28545" lon="-2.51727">
        <ele>6.87</ele>
        <time>2017-03-30T12:18:06Z</time>
      </trkpt>
      <trkpt lat="47.28541" lon="-2.51713">
        <ele>7.35</ele>
        <time>2017-03-30T12:18:14Z</time>
      </trkpt>
      <trkpt lat="47.28539" lon="-2.51699">
        <ele>7.35</ele>
        <time>2017-03-30T12:18:22Z</time>
      </trkpt>
      <trkpt lat="47.28538" lon="-2.51685">
        <ele>8.31</ele>
        <time>2017-03-30T12:18:30Z</time>
      </trkpt>
      <trkpt lat="47.28539" lon="-2.51671">
        <ele>6.39</ele>
        <time>2017-03-30T12:18:38Z</time>
      </trkpt>
      <trkpt lat="47.28537" lon="-2.51658">
        <ele>8.31</ele>
        <time>2017-03-30T12:18:46Z</time>
      </trkpt>
      <trkpt lat="47.28533" lon="-2.51645">
        <ele>4.46</ele>
        <time>2017-03-30T12:18:54Z</time>
      </trkpt>
      <trkpt lat="47.28531" lon="-2.51631">
        <ele>7.83</ele>
        <time>2017-03-30T12:19:02Z</time>
      </trkpt>
      <trkpt lat="47.28533" lon="-2.51617">
        <ele>5.91</ele>
        <time>2017-03-30T12:19:10Z</time>
      </trkpt>
      <trkpt lat="47.28531" lon="-2.51603">
        <ele>6.87</ele>
        <time>2017-03-30T12:19:18Z</time>
      </trkpt>
      <trkpt lat="47.28529" lon="-2.51589">
        <ele>6.87</ele>
        <time>2017-03-30T12:19:26Z</time>
      </trkpt>
      <trkpt lat="47.28526" lon="-2.51576">
        <ele>4.94</ele>
        <time>2017-03-30T12:19:34Z</time>
      </trkpt>
      <trkpt lat="47.28525" lon="-2.51562">
        <ele>6.39</ele>
        <time>2017-03-30T12:19:42Z</time>
      </trkpt>
      <trkpt lat="47.28523" lon="-2.51549">
        <ele>6.39</ele>
        <time>2017-03-30T12:19:50Z</time>
      </trkpt>
      <trkpt lat="47.28521" lon="-2.51535">
        <ele>5.91</ele>
        <time>2017-03-30T12:19:58Z</time>
      </trkpt>
      <trkpt lat="47.28518" lon="-2.51522">
        <ele>6.39</ele>
        <time>2017-03-30T12:20:06Z</time>
      </trkpt>
      <trkpt lat="47.28514" lon="-2.51509">
        <ele>5.91</ele>
        <time>2017-03-30T12:20:15Z</time>
      </trkpt>
      <trkpt lat="47.28508" lon="-2.51499">
        <ele>4.46</ele>
        <time>2017-03-30T12:20:23Z</time>
      </trkpt>
      <trkpt lat="47.285" lon="-2.51491">
        <ele>5.91</ele>
        <time>2017-03-30T12:20:31Z</time>
      </trkpt>
      <trkpt lat="47.28493" lon="-2.51483">
        <ele>6.87</ele>
        <time>2017-03-30T12:20:39Z</time>
      </trkpt>
      <trkpt lat="47.28484" lon="-2.51474">
        <ele>7.35</ele>
        <time>2017-03-30T12:20:48Z</time>
      </trkpt>
      <trkpt lat="47.28476" lon="-2.51466">
        <ele>5.91</ele>
        <time>2017-03-30T12:20:56Z</time>
      </trkpt>
      <trkpt lat="47.28469" lon="-2.51455">
        <ele>7.35</ele>
        <time>2017-03-30T12:21:04Z</time>
      </trkpt>
      <trkpt lat="47.28464" lon="-2.51444">
        <ele>8.79</ele>
        <time>2017-03-30T12:21:12Z</time>
      </trkpt>
      <trkpt lat="47.28458" lon="-2.51433">
        <ele>7.35</ele>
        <time>2017-03-30T12:21:20Z</time>
      </trkpt>
      <trkpt lat="47.28453" lon="-2.51423">
        <ele>8.31</ele>
        <time>2017-03-30T12:21:28Z</time>
      </trkpt>
      <trkpt lat="47.28446" lon="-2.51412">
        <ele>7.83</ele>
        <time>2017-03-30T12:21:39Z</time>
      </trkpt>
      <trkpt lat="47.2844" lon="-2.51399">
        <ele>5.42</ele>
        <time>2017-03-30T12:22:00Z</time>
      </trkpt>
      <trkpt lat="47.28436" lon="-2.51386">
        <ele>4.94</ele>
        <time>2017-03-30T12:22:27Z</time>
      </trkpt>
      <trkpt lat="47.28438" lon="-2.51368">
        <ele>6.39</ele>
        <time>2017-03-30T12:22:36Z</time>
      </trkpt>
      <trkpt lat="47.28437" lon="-2.51355">
        <ele>6.39</ele>
        <time>2017-03-30T12:22:46Z</time>
      </trkpt>
      <trkpt lat="47.28436" lon="-2.51341">
        <ele>6.87</ele>
        <time>2017-03-30T12:22:56Z</time>
      </trkpt>
      <trkpt lat="47.28431" lon="-2.51329">
        <ele>8.79</ele>
        <time>2017-03-30T12:23:05Z</time>
      </trkpt>
      <trkpt lat="47.28425" lon="-2.51316">
        <ele>6.87</ele>
        <time>2017-03-30T12:23:15Z</time>
      </trkpt>
      <trkpt lat="47.2842" lon="-2.51305">
        <ele>9.27</ele>
        <time>2017-03-30T12:23:24Z</time>
      </trkpt>
      <trkpt lat="47.28416" lon="-2.51292">
        <ele>5.91</ele>
        <time>2017-03-30T12:23:33Z</time>
      </trkpt>
      <trkpt lat="47.28408" lon="-2.51281">
        <ele>8.31</ele>
        <time>2017-03-30T12:23:42Z</time>
      </trkpt>
      <trkpt lat="47.284" lon="-2.51271">
        <ele>8.79</ele>
        <time>2017-03-30T12:23:51Z</time>
      </trkpt>
      <trkpt lat="47.28391" lon="-2.51264">
        <ele>7.83</ele>
        <time>2017-03-30T12:24:00Z</time>
      </trkpt>
      <trkpt lat="47.28381" lon="-2.51259">
        <ele>8.31</ele>
        <time>2017-03-30T12:24:08Z</time>
      </trkpt>
      <trkpt lat="47.28371" lon="-2.51251">
        <ele>6.39</ele>
        <time>2017-03-30T12:24:16Z</time>
      </trkpt>
      <trkpt lat="47.28362" lon="-2.51246">
        <ele>6.39</ele>
        <time>2017-03-30T12:24:24Z</time>
      </trkpt>
      <trkpt lat="47.28353" lon="-2.51238">
        <ele>6.39</ele>
        <time>2017-03-30T12:24:33Z</time>
      </trkpt>
      <trkpt lat="47.28345" lon="-2.51234">
        <ele>6.39</ele>
        <time>2017-03-30T12:24:41Z</time>
      </trkpt>
      <trkpt lat="47.28336" lon="-2.51229">
        <ele>5.91</ele>
        <time>2017-03-30T12:24:49Z</time>
      </trkpt>
      <trkpt lat="47.28328" lon="-2.51222">
        <ele>5.91</ele>
        <time>2017-03-30T12:24:57Z</time>
      </trkpt>
      <trkpt lat="47.28319" lon="-2.51215">
        <ele>5.42</ele>
        <time>2017-03-30T12:25:05Z</time>
      </trkpt>
      <trkpt lat="47.28311" lon="-2.51208">
        <ele>5.91</ele>
        <time>2017-03-30T12:25:13Z</time>
      </trkpt>
      <trkpt lat="47.28304" lon="-2.512">
        <ele>7.35</ele>
        <time>2017-03-30T12:25:21Z</time>
      </trkpt>
      <trkpt lat="47.28299" lon="-2.5119">
        <ele>5.42</ele>
        <time>2017-03-30T12:25:28Z</time>
      </trkpt>
      <trkpt lat="47.28294" lon="-2.51177">
        <ele>7.35</ele>
        <time>2017-03-30T12:25:36Z</time>
      </trkpt>
      <trkpt lat="47.2829" lon="-2.51164">
        <ele>7.83</ele>
        <time>2017-03-30T12:25:45Z</time>
      </trkpt>
      <trkpt lat="47.28284" lon="-2.51151">
        <ele>8.79</ele>
        <time>2017-03-30T12:25:53Z</time>
      </trkpt>
      <trkpt lat="47.2828" lon="-2.51138">
        <ele>7.35</ele>
        <time>2017-03-30T12:26:01Z</time>
      </trkpt>
      <trkpt lat="47.28277" lon="-2.51124">
        <ele>6.87</ele>
        <time>2017-03-30T12:26:09Z</time>
      </trkpt>
      <trkpt lat="47.28272" lon="-2.51112">
        <ele>6.87</ele>
        <time>2017-03-30T12:26:17Z</time>
      </trkpt>
      <trkpt lat="47.28267" lon="-2.511">
        <ele>6.87</ele>
        <time>2017-03-30T12:26:25Z</time>
      </trkpt>
      <trkpt lat="47.28262" lon="-2.51088">
        <ele>6.39</ele>
        <time>2017-03-30T12:26:34Z</time>
      </trkpt>
      <trkpt lat="47.28255" lon="-2.51078">
        <ele>7.35</ele>
        <time>2017-03-30T12:26:42Z</time>
      </trkpt>
      <trkpt lat="47.28247" lon="-2.51071">
        <ele>7.35</ele>
        <time>2017-03-30T12:26:51Z</time>
      </trkpt>
      <trkpt lat="47.28239" lon="-2.51065">
        <ele>7.83</ele>
        <time>2017-03-30T12:27:00Z</time>
      </trkpt>
      <trkpt lat="47.28233" lon="-2.51053">
        <ele>5.91</ele>
        <time>2017-03-30T12:27:09Z</time>
      </trkpt>
      <trkpt lat="47.2823" lon="-2.51038">
        <ele>6.87</ele>
        <time>2017-03-30T12:27:18Z</time>
      </trkpt>
      <trkpt lat="47.28233" lon="-2.51024">
        <ele>7.83</ele>
        <time>2017-03-30T12:27:27Z</time>
      </trkpt>
      <trkpt lat="47.28237" lon="-2.51011">
        <ele>6.39</ele>
        <time>2017-03-30T12:27:36Z</time>
      </trkpt>
      <trkpt lat="47.28237" lon="-2.50997">
        <ele>6.87</ele>
        <time>2017-03-30T12:27:45Z</time>
      </trkpt>
      <trkpt lat="47.28238" lon="-2.50983">
        <ele>5.91</ele>
        <time>2017-03-30T12:27:53Z</time>
      </trkpt>
      <trkpt lat="47.28237" lon="-2.50969">
        <ele>5.91</ele>
        <time>2017-03-30T12:28:02Z</time>
      </trkpt>
      <trkpt lat="47.28235" lon="-2.50956">
        <ele>6.87</ele>
        <time>2017-03-30T12:28:10Z</time>
      </trkpt>
      <trkpt lat="47.28234" lon="-2.50942">
        <ele>6.39</ele>
        <time>2017-03-30T12:28:19Z</time>
      </trkpt>
      <trkpt lat="47.28231" lon="-2.50928">
        <ele>6.39</ele>
        <time>2017-03-30T12:28:29Z</time>
      </trkpt>
      <trkpt lat="47.28228" lon="-2.50914">
        <ele>5.42</ele>
        <time>2017-03-30T12:28:39Z</time>
      </trkpt>
      <trkpt lat="47.28226" lon="-2.50901">
        <ele>5.91</ele>
        <time>2017-03-30T12:28:49Z</time>
      </trkpt>
      <trkpt lat="47.28224" lon="-2.50886">
        <ele>4.94</ele>
        <time>2017-03-30T12:28:59Z</time>
      </trkpt>
      <trkpt lat="47.2822" lon="-2.50872">
        <ele>6.87</ele>
        <time>2017-03-30T12:29:09Z</time>
      </trkpt>
      <trkpt lat="47.28217" lon="-2.50857">
        <ele>4.94</ele>
        <time>2017-03-30T12:29:19Z</time>
      </trkpt>
      <trkpt lat="47.28213" lon="-2.50844">
        <ele>6.39</ele>
        <time>2017-03-30T12:29:29Z</time>
      </trkpt>
      <trkpt lat="47.28206" lon="-2.50832">
        <ele>4.94</ele>
        <time>2017-03-30T12:29:39Z</time>
      </trkpt>
      <trkpt lat="47.28203" lon="-2.50818">
        <ele>5.91</ele>
        <time>2017-03-30T12:29:48Z</time>
      </trkpt>
      <trkpt lat="47.28203" lon="-2.50803">
        <ele>6.87</ele>
        <time>2017-03-30T12:29:57Z</time>
      </trkpt>
      <trkpt lat="47.28203" lon="-2.50792">
        <ele>7.83</ele>
        <time>2017-03-30T12:30:29Z</time>
      </trkpt>
      <trkpt lat="47.28205" lon="-2.50776">
        <ele>7.35</ele>
        <time>2017-03-30T12:30:38Z</time>
      </trkpt>
      <trkpt lat="47.28203" lon="-2.50762">
        <ele>7.83</ele>
        <time>2017-03-30T12:30:46Z</time>
      </trkpt>
      <trkpt lat="47.28203" lon="-2.50748">
        <ele>7.35</ele>
        <time>2017-03-30T12:30:54Z</time>
      </trkpt>
      <trkpt lat="47.28207" lon="-2.50736">
        <ele>6.87</ele>
        <time>2017-03-30T12:31:02Z</time>
      </trkpt>
      <trkpt lat="47.28213" lon="-2.50733">
        <ele>6.39</ele>
        <time>2017-03-30T12:31:20Z</time>
      </trkpt>
      <trkpt lat="47.2822" lon="-2.5072">
        <ele>6.87</ele>
        <time>2017-03-30T12:31:28Z</time>
      </trkpt>
      <trkpt lat="47.28227" lon="-2.5071">
        <ele>6.87</ele>
        <time>2017-03-30T12:31:36Z</time>
      </trkpt>
      <trkpt lat="47.28235" lon="-2.507">
        <ele>7.35</ele>
        <time>2017-03-30T12:31:45Z</time>
      </trkpt>
      <trkpt lat="47.28235" lon="-2.50688">
        <ele>7.35</ele>
        <time>2017-03-30T12:32:03Z</time>
      </trkpt>
      <trkpt lat="47.28243" lon="-2.50682">
        <ele>6.87</ele>
        <time>2017-03-30T12:32:12Z</time>
      </trkpt>
      <trkpt lat="47.28253" lon="-2.50675">
        <ele>7.35</ele>
        <time>2017-03-30T12:32:21Z</time>
      </trkpt>
      <trkpt lat="47.28262" lon="-2.5067">
        <ele>5.91</ele>
        <time>2017-03-30T12:32:29Z</time>
      </trkpt>
      <trkpt lat="47.2827" lon="-2.50662">
        <ele>7.35</ele>
        <time>2017-03-30T12:32:38Z</time>
      </trkpt>
      <trkpt lat="47.2828" lon="-2.50654">
        <ele>7.83</ele>
        <time>2017-03-30T12:32:47Z</time>
      </trkpt>
      <trkpt lat="47.28289" lon="-2.50647">
        <ele>5.42</ele>
        <time>2017-03-30T12:32:55Z</time>
      </trkpt>
      <trkpt lat="47.28299" lon="-2.50639">
        <ele>5.42</ele>
        <time>2017-03-30T12:33:03Z</time>
      </trkpt>
      <trkpt lat="47.28306" lon="-2.50631">
        <ele>8.31</ele>
        <time>2017-03-30T12:33:11Z</time>
      </trkpt>
      <trkpt lat="47.28314" lon="-2.50624">
        <ele>4.94</ele>
        <time>2017-03-30T12:33:18Z</time>
      </trkpt>
      <trkpt lat="47.28323" lon="-2.50616">
        <ele>6.87</ele>
        <time>2017-03-30T12:33:27Z</time>
      </trkpt>
      <trkpt lat="47.28334" lon="-2.50611">
        <ele>6.87</ele>
        <time>2017-03-30T12:33:36Z</time>
      </trkpt>
      <trkpt lat="47.28343" lon="-2.50604">
        <ele>4.94</ele>
        <time>2017-03-30T12:33:44Z</time>
      </trkpt>
      <trkpt lat="47.28352" lon="-2.50596">
        <ele>5.42</ele>
        <time>2017-03-30T12:33:53Z</time>
      </trkpt>
      <trkpt lat="47.28361" lon="-2.50591">
        <ele>6.87</ele>
        <time>2017-03-30T12:34:04Z</time>
      </trkpt>
      <trkpt lat="47.28369" lon="-2.50583">
        <ele>7.83</ele>
        <time>2017-03-30T12:34:12Z</time>
      </trkpt>
      <trkpt lat="47.28377" lon="-2.50576">
        <ele>4.46</ele>
        <time>2017-03-30T12:34:20Z</time>
      </trkpt>
      <trkpt lat="47.28385" lon="-2.50568">
        <ele>4.46</ele>
        <time>2017-03-30T12:34:29Z</time>
      </trkpt>
      <trkpt lat="47.28394" lon="-2.50561">
        <ele>4.94</ele>
        <time>2017-03-30T12:34:38Z</time>
      </trkpt>
      <trkpt lat="47.28403" lon="-2.50553">
        <ele>5.91</ele>
        <time>2017-03-30T12:34:48Z</time>
      </trkpt>
      <trkpt lat="47.28402" lon="-2.50554">
        <ele>3.98</ele>
        <time>2017-03-30T12:36:05Z</time>
      </trkpt>
      <trkpt lat="47.28404" lon="-2.50547">
        <ele>5.42</ele>
        <time>2017-03-30T12:38:14Z</time>
      </trkpt>
      <trkpt lat="47.284" lon="-2.50551">
        <ele>6.39</ele>
        <time>2017-03-30T12:39:59Z</time>
      </trkpt>
      <trkpt lat="47.28396" lon="-2.50539">
        <ele>5.91</ele>
        <time>2017-03-30T12:40:11Z</time>
      </trkpt>
      <trkpt lat="47.28396" lon="-2.50526">
        <ele>4.94</ele>
        <time>2017-03-30T12:40:23Z</time>
      </trkpt>
      <trkpt lat="47.28406" lon="-2.50532">
        <ele>4.94</ele>
        <time>2017-03-30T12:40:37Z</time>
      </trkpt>
      <trkpt lat="47.28408" lon="-2.50548">
        <ele>4.94</ele>
        <time>2017-03-30T12:40:53Z</time>
      </trkpt>
      <trkpt lat="47.28405" lon="-2.50557">
        <ele>4.46</ele>
        <time>2017-03-30T12:41:09Z</time>
      </trkpt>
      <trkpt lat="47.28406" lon="-2.50552">
        <ele>5.91</ele>
        <time>2017-03-30T12:42:36Z</time>
      </trkpt>
      <trkpt lat="47.28409" lon="-2.50539">
        <ele>3.98</ele>
        <time>2017-03-30T12:42:47Z</time>
      </trkpt>
      <trkpt lat="47.28407" lon="-2.50527">
        <ele>4.46</ele>
        <time>2017-03-30T12:43:02Z</time>
      </trkpt>
      <trkpt lat="47.28404" lon="-2.50512">
        <ele>4.94</ele>
        <time>2017-03-30T12:43:11Z</time>
      </trkpt>
      <trkpt lat="47.284" lon="-2.50496">
        <ele>3.98</ele>
        <time>2017-03-30T12:43:22Z</time>
      </trkpt>
      <trkpt lat="47.28395" lon="-2.50484">
        <ele>3.98</ele>
        <time>2017-03-30T12:43:30Z</time>
      </trkpt>
      <trkpt lat="47.28391" lon="-2.50472">
        <ele>3.98</ele>
        <time>2017-03-30T12:43:38Z</time>
      </trkpt>
      <trkpt lat="47.28387" lon="-2.50458">
        <ele>3.02</ele>
        <time>2017-03-30T12:43:47Z</time>
      </trkpt>
      <trkpt lat="47.28381" lon="-2.50444">
        <ele>3.02</ele>
        <time>2017-03-30T12:43:56Z</time>
      </trkpt>
      <trkpt lat="47.28376" lon="-2.50431">
        <ele>3.02</ele>
        <time>2017-03-30T12:44:04Z</time>
      </trkpt>
      <trkpt lat="47.28371" lon="-2.50419">
        <ele>3.98</ele>
        <time>2017-03-30T12:44:13Z</time>
      </trkpt>
      <trkpt lat="47.28368" lon="-2.50407">
        <ele>3.5</ele>
        <time>2017-03-30T12:44:21Z</time>
      </trkpt>
      <trkpt lat="47.28362" lon="-2.50395">
        <ele>3.98</ele>
        <time>2017-03-30T12:44:29Z</time>
      </trkpt>
      <trkpt lat="47.28353" lon="-2.50393">
        <ele>3.98</ele>
        <time>2017-03-30T12:44:38Z</time>
      </trkpt>
      <trkpt lat="47.28344" lon="-2.50398">
        <ele>4.46</ele>
        <time>2017-03-30T12:44:48Z</time>
      </trkpt>
      <trkpt lat="47.28335" lon="-2.50399">
        <ele>3.98</ele>
        <time>2017-03-30T12:45:05Z</time>
      </trkpt>
      <trkpt lat="47.28324" lon="-2.50407">
        <ele>4.46</ele>
        <time>2017-03-30T12:45:17Z</time>
      </trkpt>
      <trkpt lat="47.2832" lon="-2.50415">
        <ele>4.46</ele>
        <time>2017-03-30T12:45:32Z</time>
      </trkpt>
      <trkpt lat="47.28315" lon="-2.50408">
        <ele>4.94</ele>
        <time>2017-03-30T12:56:43Z</time>
      </trkpt>
      <trkpt lat="47.28312" lon="-2.50396">
        <ele>6.39</ele>
        <time>2017-03-30T12:56:54Z</time>
      </trkpt>
      <trkpt lat="47.28309" lon="-2.5038">
        <ele>5.91</ele>
        <time>2017-03-30T12:57:03Z</time>
      </trkpt>
      <trkpt lat="47.28303" lon="-2.50368">
        <ele>5.91</ele>
        <time>2017-03-30T12:57:12Z</time>
      </trkpt>
      <trkpt lat="47.28294" lon="-2.5037">
        <ele>4.94</ele>
        <time>2017-03-30T12:57:21Z</time>
      </trkpt>
      <trkpt lat="47.28285" lon="-2.50367">
        <ele>5.42</ele>
        <time>2017-03-30T12:57:30Z</time>
      </trkpt>
      <trkpt lat="47.28283" lon="-2.50354">
        <ele>5.42</ele>
        <time>2017-03-30T12:57:35Z</time>
      </trkpt>
      <trkpt lat="47.28282" lon="-2.50342">
        <ele>5.91</ele>
        <time>2017-03-30T12:57:42Z</time>
      </trkpt>
      <trkpt lat="47.28279" lon="-2.50328">
        <ele>5.91</ele>
        <time>2017-03-30T12:57:52Z</time>
      </trkpt>
      <trkpt lat="47.28275" lon="-2.50313">
        <ele>5.91</ele>
        <time>2017-03-30T12:58:00Z</time>
      </trkpt>
      <trkpt lat="47.28269" lon="-2.503">
        <ele>5.91</ele>
        <time>2017-03-30T12:58:08Z</time>
      </trkpt>
      <trkpt lat="47.28265" lon="-2.50287">
        <ele>5.91</ele>
        <time>2017-03-30T12:58:19Z</time>
      </trkpt>
      <trkpt lat="47.28259" lon="-2.50275">
        <ele>5.42</ele>
        <time>2017-03-30T12:58:27Z</time>
      </trkpt>
      <trkpt lat="47.28252" lon="-2.50264">
        <ele>5.91</ele>
        <time>2017-03-30T12:58:36Z</time>
      </trkpt>
      <trkpt lat="47.28245" lon="-2.50256">
        <ele>5.91</ele>
        <time>2017-03-30T12:58:42Z</time>
      </trkpt>
      <trkpt lat="47.28238" lon="-2.50249">
        <ele>5.91</ele>
        <time>2017-03-30T12:58:51Z</time>
      </trkpt>
      <trkpt lat="47.28232" lon="-2.50235">
        <ele>6.39</ele>
        <time>2017-03-30T12:59:00Z</time>
      </trkpt>
      <trkpt lat="47.28224" lon="-2.50222">
        <ele>6.39</ele>
        <time>2017-03-30T12:59:09Z</time>
      </trkpt>
      <trkpt lat="47.28218" lon="-2.5021">
        <ele>6.39</ele>
        <time>2017-03-30T12:59:18Z</time>
      </trkpt>
      <trkpt lat="47.28212" lon="-2.50197">
        <ele>6.39</ele>
        <time>2017-03-30T12:59:28Z</time>
      </trkpt>
      <trkpt lat="47.28206" lon="-2.50182">
        <ele>6.39</ele>
        <time>2017-03-30T12:59:36Z</time>
      </trkpt>
      <trkpt lat="47.28202" lon="-2.50167">
        <ele>6.87</ele>
        <time>2017-03-30T12:59:44Z</time>
      </trkpt>
      <trkpt lat="47.28201" lon="-2.50152">
        <ele>6.39</ele>
        <time>2017-03-30T12:59:54Z</time>
      </trkpt>
      <trkpt lat="47.28191" lon="-2.5015">
        <ele>6.87</ele>
        <time>2017-03-30T13:00:04Z</time>
      </trkpt>
      <trkpt lat="47.28181" lon="-2.50154">
        <ele>7.35</ele>
        <time>2017-03-30T13:00:14Z</time>
      </trkpt>
      <trkpt lat="47.28171" lon="-2.50156">
        <ele>7.35</ele>
        <time>2017-03-30T13:00:22Z</time>
      </trkpt>
      <trkpt lat="47.2816" lon="-2.50159">
        <ele>7.83</ele>
        <time>2017-03-30T13:00:31Z</time>
      </trkpt>
      <trkpt lat="47.28151" lon="-2.50164">
        <ele>8.79</ele>
        <time>2017-03-30T13:00:40Z</time>
      </trkpt>
      <trkpt lat="47.28141" lon="-2.50168">
        <ele>8.31</ele>
        <time>2017-03-30T13:00:48Z</time>
      </trkpt>
      <trkpt lat="47.28131" lon="-2.50172">
        <ele>8.31</ele>
        <time>2017-03-30T13:00:56Z</time>
      </trkpt>
      <trkpt lat="47.28122" lon="-2.50175">
        <ele>7.83</ele>
        <time>2017-03-30T13:01:04Z</time>
      </trkpt>
      <trkpt lat="47.28113" lon="-2.50178">
        <ele>6.87</ele>
        <time>2017-03-30T13:01:12Z</time>
      </trkpt>
      <trkpt lat="47.28104" lon="-2.50181">
        <ele>5.42</ele>
        <time>2017-03-30T13:01:21Z</time>
      </trkpt>
      <trkpt lat="47.28097" lon="-2.50176">
        <ele>3.98</ele>
        <time>2017-03-30T13:01:33Z</time>
      </trkpt>
      <trkpt lat="47.28091" lon="-2.50166">
        <ele>2.54</ele>
        <time>2017-03-30T13:01:44Z</time>
      </trkpt>
      <trkpt lat="47.28088" lon="-2.50154">
        <ele>2.54</ele>
        <time>2017-03-30T13:01:53Z</time>
      </trkpt>
      <trkpt lat="47.28085" lon="-2.50143">
        <ele>2.54</ele>
        <time>2017-03-30T13:02:01Z</time>
      </trkpt>
      <trkpt lat="47.28085" lon="-2.5013">
        <ele>2.54</ele>
        <time>2017-03-30T13:02:10Z</time>
      </trkpt>
      <trkpt lat="47.28084" lon="-2.50117">
        <ele>1.58</ele>
        <time>2017-03-30T13:02:18Z</time>
      </trkpt>
      <trkpt lat="47.28082" lon="-2.50103">
        <ele>2.06</ele>
        <time>2017-03-30T13:02:27Z</time>
      </trkpt>
      <trkpt lat="47.28081" lon="-2.5009">
        <ele>2.06</ele>
        <time>2017-03-30T13:02:36Z</time>
      </trkpt>
      <trkpt lat="47.28078" lon="-2.50077">
        <ele>1.1</ele>
        <time>2017-03-30T13:02:45Z</time>
      </trkpt>
      <trkpt lat="47.28074" lon="-2.50066">
        <ele>1.58</ele>
        <time>2017-03-30T13:02:54Z</time>
      </trkpt>
      <trkpt lat="47.28072" lon="-2.50054">
        <ele>1.1</ele>
        <time>2017-03-30T13:03:04Z</time>
      </trkpt>
      <trkpt lat="47.28069" lon="-2.5004">
        <ele>1.1</ele>
        <time>2017-03-30T13:03:13Z</time>
      </trkpt>
      <trkpt lat="47.28067" lon="-2.50027">
        <ele>1.58</ele>
        <time>2017-03-30T13:03:22Z</time>
      </trkpt>
      <trkpt lat="47.28062" lon="-2.50015">
        <ele>1.58</ele>
        <time>2017-03-30T13:03:31Z</time>
      </trkpt>
      <trkpt lat="47.28059" lon="-2.50003">
        <ele>1.58</ele>
        <time>2017-03-30T13:03:40Z</time>
      </trkpt>
      <trkpt lat="47.28055" lon="-2.4999">
        <ele>3.02</ele>
        <time>2017-03-30T13:03:49Z</time>
      </trkpt>
      <trkpt lat="47.28051" lon="-2.49976">
        <ele>0.14</ele>
        <time>2017-03-30T13:03:58Z</time>
      </trkpt>
      <trkpt lat="47.28048" lon="-2.49962">
        <ele>0.14</ele>
        <time>2017-03-30T13:04:07Z</time>
      </trkpt>
      <trkpt lat="47.28045" lon="-2.49954">
        <ele>1.58</ele>
        <time>2017-03-30T13:04:20Z</time>
      </trkpt>
      <trkpt lat="47.28041" lon="-2.49941">
        <ele>1.58</ele>
        <time>2017-03-30T13:04:28Z</time>
      </trkpt>
      <trkpt lat="47.28037" lon="-2.49928">
        <ele>0.62</ele>
        <time>2017-03-30T13:04:36Z</time>
      </trkpt>
      <trkpt lat="47.28033" lon="-2.49915">
        <ele>0.62</ele>
        <time>2017-03-30T13:04:45Z</time>
      </trkpt>
      <trkpt lat="47.28029" lon="-2.49903">
        <ele>1.1</ele>
        <time>2017-03-30T13:04:54Z</time>
      </trkpt>
      <trkpt lat="47.28026" lon="-2.49889">
        <ele>0.62</ele>
        <time>2017-03-30T13:05:03Z</time>
      </trkpt>
      <trkpt lat="47.28022" lon="-2.49877">
        <ele>1.1</ele>
        <time>2017-03-30T13:05:11Z</time>
      </trkpt>
      <trkpt lat="47.28018" lon="-2.49864">
        <ele>0.62</ele>
        <time>2017-03-30T13:05:20Z</time>
      </trkpt>
      <trkpt lat="47.28014" lon="-2.49852">
        <ele>0.62</ele>
        <time>2017-03-30T13:05:28Z</time>
      </trkpt>
      <trkpt lat="47.28009" lon="-2.4984">
        <ele>3.98</ele>
        <time>2017-03-30T13:05:37Z</time>
      </trkpt>
      <trkpt lat="47.28005" lon="-2.49829">
        <ele>0.62</ele>
        <time>2017-03-30T13:05:46Z</time>
      </trkpt>
      <trkpt lat="47.27999" lon="-2.49817">
        <ele>1.1</ele>
        <time>2017-03-30T13:05:55Z</time>
      </trkpt>
      <trkpt lat="47.27994" lon="-2.49804">
        <ele>0.14</ele>
        <time>2017-03-30T13:06:04Z</time>
      </trkpt>
      <trkpt lat="47.27988" lon="-2.49791">
        <ele>1.1</ele>
        <time>2017-03-30T13:06:13Z</time>
      </trkpt>
      <trkpt lat="47.27983" lon="-2.4978">
        <ele>-1.3</ele>
        <time>2017-03-30T13:06:22Z</time>
      </trkpt>
      <trkpt lat="47.27979" lon="-2.49767">
        <ele>2.06</ele>
        <time>2017-03-30T13:06:32Z</time>
      </trkpt>
      <trkpt lat="47.27973" lon="-2.49756">
        <ele>0.14</ele>
        <time>2017-03-30T13:06:41Z</time>
      </trkpt>
      <trkpt lat="47.27968" lon="-2.49743">
        <ele>-0.34</ele>
        <time>2017-03-30T13:06:50Z</time>
      </trkpt>
      <trkpt lat="47.27964" lon="-2.4973">
        <ele>0.14</ele>
        <time>2017-03-30T13:06:59Z</time>
      </trkpt>
      <trkpt lat="47.2796" lon="-2.49718">
        <ele>0.14</ele>
        <time>2017-03-30T13:07:08Z</time>
      </trkpt>
      <trkpt lat="47.27954" lon="-2.49708">
        <ele>0.62</ele>
        <time>2017-03-30T13:07:16Z</time>
      </trkpt>
      <trkpt lat="47.27949" lon="-2.49699">
        <ele>3.02</ele>
        <time>2017-03-30T13:07:24Z</time>
      </trkpt>
      <trkpt lat="47.27942" lon="-2.49688">
        <ele>0.62</ele>
        <time>2017-03-30T13:07:33Z</time>
      </trkpt>
      <trkpt lat="47.27936" lon="-2.49677">
        <ele>1.58</ele>
        <time>2017-03-30T13:07:42Z</time>
      </trkpt>
      <trkpt lat="47.27931" lon="-2.49666">
        <ele>0.14</ele>
        <time>2017-03-30T13:07:51Z</time>
      </trkpt>
      <trkpt lat="47.27924" lon="-2.49656">
        <ele>0.14</ele>
        <time>2017-03-30T13:08:00Z</time>
      </trkpt>
      <trkpt lat="47.27917" lon="-2.49647">
        <ele>-0.82</ele>
        <time>2017-03-30T13:08:09Z</time>
      </trkpt>
      <trkpt lat="47.27909" lon="-2.4964">
        <ele>0.62</ele>
        <time>2017-03-30T13:08:18Z</time>
      </trkpt>
      <trkpt lat="47.27901" lon="-2.49631">
        <ele>-1.3</ele>
        <time>2017-03-30T13:08:27Z</time>
      </trkpt>
      <trkpt lat="47.27897" lon="-2.49619">
        <ele>0.14</ele>
        <time>2017-03-30T13:08:36Z</time>
      </trkpt>
      <trkpt lat="47.27891" lon="-2.49608">
        <ele>0.62</ele>
        <time>2017-03-30T13:08:45Z</time>
      </trkpt>
      <trkpt lat="47.27884" lon="-2.49598">
        <ele>-0.82</ele>
        <time>2017-03-30T13:08:54Z</time>
      </trkpt>
      <trkpt lat="47.27877" lon="-2.49589">
        <ele>3.02</ele>
        <time>2017-03-30T13:09:03Z</time>
      </trkpt>
      <trkpt lat="47.27869" lon="-2.49581">
        <ele>0.14</ele>
        <time>2017-03-30T13:09:12Z</time>
      </trkpt>
      <trkpt lat="47.27864" lon="-2.4957">
        <ele>0.14</ele>
        <time>2017-03-30T13:09:21Z</time>
      </trkpt>
      <trkpt lat="47.27859" lon="-2.49558">
        <ele>3.98</ele>
        <time>2017-03-30T13:09:31Z</time>
      </trkpt>
      <trkpt lat="47.27853" lon="-2.49547">
        <ele>0.14</ele>
        <time>2017-03-30T13:09:40Z</time>
      </trkpt>
      <trkpt lat="47.27847" lon="-2.49537">
        <ele>3.02</ele>
        <time>2017-03-30T13:09:49Z</time>
      </trkpt>
      <trkpt lat="47.2784" lon="-2.49527">
        <ele>5.42</ele>
        <time>2017-03-30T13:09:58Z</time>
      </trkpt>
      <trkpt lat="47.27836" lon="-2.49515">
        <ele>5.91</ele>
        <time>2017-03-30T13:10:08Z</time>
      </trkpt>
      <trkpt lat="47.2783" lon="-2.49505">
        <ele>2.54</ele>
        <time>2017-03-30T13:10:17Z</time>
      </trkpt>
      <trkpt lat="47.27824" lon="-2.49495">
        <ele>3.02</ele>
        <time>2017-03-30T13:10:26Z</time>
      </trkpt>
      <trkpt lat="47.27817" lon="-2.49486">
        <ele>6.39</ele>
        <time>2017-03-30T13:10:35Z</time>
      </trkpt>
      <trkpt lat="47.27811" lon="-2.49474">
        <ele>2.54</ele>
        <time>2017-03-30T13:10:45Z</time>
      </trkpt>
      <trkpt lat="47.27805" lon="-2.49463">
        <ele>3.5</ele>
        <time>2017-03-30T13:10:56Z</time>
      </trkpt>
      <trkpt lat="47.27801" lon="-2.4945">
        <ele>6.39</ele>
        <time>2017-03-30T13:11:06Z</time>
      </trkpt>
      <trkpt lat="47.27802" lon="-2.49436">
        <ele>4.46</ele>
        <time>2017-03-30T13:11:21Z</time>
      </trkpt>
      <trkpt lat="47.27806" lon="-2.49423">
        <ele>6.87</ele>
        <time>2017-03-30T13:11:34Z</time>
      </trkpt>
      <trkpt lat="47.2781" lon="-2.49414">
        <ele>7.35</ele>
        <time>2017-03-30T13:11:49Z</time>
      </trkpt>
      <trkpt lat="47.27813" lon="-2.49397">
        <ele>7.83</ele>
        <time>2017-03-30T13:12:24Z</time>
      </trkpt>
      <trkpt lat="47.27814" lon="-2.49382">
        <ele>7.83</ele>
        <time>2017-03-30T13:12:34Z</time>
      </trkpt>
      <trkpt lat="47.27812" lon="-2.4937">
        <ele>7.83</ele>
        <time>2017-03-30T13:12:46Z</time>
      </trkpt>
      <trkpt lat="47.27814" lon="-2.49355">
        <ele>8.31</ele>
        <time>2017-03-30T13:12:56Z</time>
      </trkpt>
      <trkpt lat="47.27817" lon="-2.49341">
        <ele>7.83</ele>
        <time>2017-03-30T13:13:07Z</time>
      </trkpt>
      <trkpt lat="47.27821" lon="-2.49328">
        <ele>8.31</ele>
        <time>2017-03-30T13:13:22Z</time>
      </trkpt>
      <trkpt lat="47.27824" lon="-2.49313">
        <ele>8.79</ele>
        <time>2017-03-30T13:13:30Z</time>
      </trkpt>
      <trkpt lat="47.27827" lon="-2.49299">
        <ele>8.79</ele>
        <time>2017-03-30T13:13:39Z</time>
      </trkpt>
      <trkpt lat="47.27832" lon="-2.49283">
        <ele>8.79</ele>
        <time>2017-03-30T13:13:48Z</time>
      </trkpt>
      <trkpt lat="47.27826" lon="-2.49275">
        <ele>9.27</ele>
        <time>2017-03-30T13:13:56Z</time>
      </trkpt>
      <trkpt lat="47.27817" lon="-2.4927">
        <ele>9.27</ele>
        <time>2017-03-30T13:14:05Z</time>
      </trkpt>
      <trkpt lat="47.27808" lon="-2.49266">
        <ele>9.27</ele>
        <time>2017-03-30T13:14:15Z</time>
      </trkpt>
      <trkpt lat="47.27796" lon="-2.49264">
        <ele>9.27</ele>
        <time>2017-03-30T13:14:27Z</time>
      </trkpt>
      <trkpt lat="47.27787" lon="-2.49266">
        <ele>9.27</ele>
        <time>2017-03-30T13:14:54Z</time>
      </trkpt>
      <trkpt lat="47.27777" lon="-2.49264">
        <ele>9.27</ele>
        <time>2017-03-30T13:15:03Z</time>
      </trkpt>
      <trkpt lat="47.27767" lon="-2.49263">
        <ele>9.27</ele>
        <time>2017-03-30T13:15:08Z</time>
      </trkpt>
      <trkpt lat="47.27755" lon="-2.49262">
        <ele>9.27</ele>
        <time>2017-03-30T13:15:17Z</time>
      </trkpt>
      <trkpt lat="47.27745" lon="-2.49263">
        <ele>8.31</ele>
        <time>2017-03-30T13:15:22Z</time>
      </trkpt>
      <trkpt lat="47.27736" lon="-2.49263">
        <ele>8.79</ele>
        <time>2017-03-30T13:15:30Z</time>
      </trkpt>
      <trkpt lat="47.27726" lon="-2.49262">
        <ele>8.79</ele>
        <time>2017-03-30T13:15:38Z</time>
      </trkpt>
      <trkpt lat="47.27717" lon="-2.4926">
        <ele>9.27</ele>
        <time>2017-03-30T13:15:45Z</time>
      </trkpt>
      <trkpt lat="47.27705" lon="-2.49259">
        <ele>8.79</ele>
        <time>2017-03-30T13:15:53Z</time>
      </trkpt>
      <trkpt lat="47.27695" lon="-2.49258">
        <ele>8.79</ele>
        <time>2017-03-30T13:16:01Z</time>
      </trkpt>
      <trkpt lat="47.27685" lon="-2.49257">
        <ele>9.27</ele>
        <time>2017-03-30T13:16:09Z</time>
      </trkpt>
      <trkpt lat="47.27675" lon="-2.49255">
        <ele>8.79</ele>
        <time>2017-03-30T13:16:15Z</time>
      </trkpt>
      <trkpt lat="47.27665" lon="-2.49252">
        <ele>8.79</ele>
        <time>2017-03-30T13:16:23Z</time>
      </trkpt>
      <trkpt lat="47.27655" lon="-2.49248">
        <ele>7.83</ele>
        <time>2017-03-30T13:16:30Z</time>
      </trkpt>
      <trkpt lat="47.27645" lon="-2.49248">
        <ele>7.83</ele>
        <time>2017-03-30T13:16:38Z</time>
      </trkpt>
      <trkpt lat="47.27636" lon="-2.49249">
        <ele>7.83</ele>
        <time>2017-03-30T13:16:46Z</time>
      </trkpt>
      <trkpt lat="47.27628" lon="-2.4925">
        <ele>6.39</ele>
        <time>2017-03-30T13:16:53Z</time>
      </trkpt>
      <trkpt lat="47.27618" lon="-2.49244">
        <ele>5.91</ele>
        <time>2017-03-30T13:17:00Z</time>
      </trkpt>
      <trkpt lat="47.27609" lon="-2.49241">
        <ele>6.39</ele>
        <time>2017-03-30T13:17:07Z</time>
      </trkpt>
      <trkpt lat="47.276" lon="-2.49239">
        <ele>6.87</ele>
        <time>2017-03-30T13:17:14Z</time>
      </trkpt>
      <trkpt lat="47.2759" lon="-2.49239">
        <ele>6.39</ele>
        <time>2017-03-30T13:17:22Z</time>
      </trkpt>
      <trkpt lat="47.2758" lon="-2.49238">
        <ele>6.39</ele>
        <time>2017-03-30T13:17:30Z</time>
      </trkpt>
      <trkpt lat="47.27572" lon="-2.49231">
        <ele>6.39</ele>
        <time>2017-03-30T13:17:38Z</time>
      </trkpt>
      <trkpt lat="47.27568" lon="-2.49221">
        <ele>3.5</ele>
        <time>2017-03-30T13:17:48Z</time>
      </trkpt>
      <trkpt lat="47.27564" lon="-2.49207">
        <ele>3.5</ele>
        <time>2017-03-30T13:17:58Z</time>
      </trkpt>
      <trkpt lat="47.27562" lon="-2.49196">
        <ele>3.5</ele>
        <time>2017-03-30T13:18:08Z</time>
      </trkpt>
      <trkpt lat="47.2756" lon="-2.49184">
        <ele>3.98</ele>
        <time>2017-03-30T13:18:18Z</time>
      </trkpt>
      <trkpt lat="47.27559" lon="-2.49169">
        <ele>4.94</ele>
        <time>2017-03-30T13:18:30Z</time>
      </trkpt>
      <trkpt lat="47.27556" lon="-2.49157">
        <ele>4.94</ele>
        <time>2017-03-30T13:18:39Z</time>
      </trkpt>
      <trkpt lat="47.27555" lon="-2.49143">
        <ele>4.94</ele>
        <time>2017-03-30T13:18:47Z</time>
      </trkpt>
      <trkpt lat="47.27549" lon="-2.49137">
        <ele>5.91</ele>
        <time>2017-03-30T13:18:58Z</time>
      </trkpt>
      <trkpt lat="47.27546" lon="-2.49122">
        <ele>5.91</ele>
        <time>2017-03-30T13:19:11Z</time>
      </trkpt>
      <trkpt lat="47.27545" lon="-2.49106">
        <ele>6.39</ele>
        <time>2017-03-30T13:19:21Z</time>
      </trkpt>
      <trkpt lat="47.27544" lon="-2.49091">
        <ele>6.87</ele>
        <time>2017-03-30T13:19:30Z</time>
      </trkpt>
      <trkpt lat="47.27541" lon="-2.49076">
        <ele>7.35</ele>
        <time>2017-03-30T13:19:44Z</time>
      </trkpt>
      <trkpt lat="47.27539" lon="-2.49064">
        <ele>9.27</ele>
        <time>2017-03-30T13:19:53Z</time>
      </trkpt>
      <trkpt lat="47.27538" lon="-2.49053">
        <ele>8.31</ele>
        <time>2017-03-30T13:20:21Z</time>
      </trkpt>
      <trkpt lat="47.27536" lon="-2.49039">
        <ele>8.31</ele>
        <time>2017-03-30T13:20:31Z</time>
      </trkpt>
      <trkpt lat="47.27535" lon="-2.49024">
        <ele>8.31</ele>
        <time>2017-03-30T13:20:38Z</time>
      </trkpt>
      <trkpt lat="47.27532" lon="-2.49009">
        <ele>5.91</ele>
        <time>2017-03-30T13:20:46Z</time>
      </trkpt>
      <trkpt lat="47.27528" lon="-2.48996">
        <ele>9.75</ele>
        <time>2017-03-30T13:20:54Z</time>
      </trkpt>
      <trkpt lat="47.2753" lon="-2.48981">
        <ele>7.35</ele>
        <time>2017-03-30T13:21:03Z</time>
      </trkpt>
      <trkpt lat="47.2753" lon="-2.48967">
        <ele>7.35</ele>
        <time>2017-03-30T13:21:12Z</time>
      </trkpt>
      <trkpt lat="47.27529" lon="-2.48951">
        <ele>7.35</ele>
        <time>2017-03-30T13:21:21Z</time>
      </trkpt>
      <trkpt lat="47.27529" lon="-2.48937">
        <ele>7.83</ele>
        <time>2017-03-30T13:21:29Z</time>
      </trkpt>
      <trkpt lat="47.27524" lon="-2.48925">
        <ele>7.35</ele>
        <time>2017-03-30T13:21:37Z</time>
      </trkpt>
      <trkpt lat="47.27518" lon="-2.48911">
        <ele>7.83</ele>
        <time>2017-03-30T13:21:46Z</time>
      </trkpt>
      <trkpt lat="47.27514" lon="-2.48901">
        <ele>8.79</ele>
        <time>2017-03-30T13:21:55Z</time>
      </trkpt>
      <trkpt lat="47.27503" lon="-2.48902">
        <ele>8.31</ele>
        <time>2017-03-30T13:22:04Z</time>
      </trkpt>
      <trkpt lat="47.27494" lon="-2.489">
        <ele>8.31</ele>
        <time>2017-03-30T13:22:12Z</time>
      </trkpt>
      <trkpt lat="47.27492" lon="-2.48889">
        <ele>8.79</ele>
        <time>2017-03-30T13:22:21Z</time>
      </trkpt>
      <trkpt lat="47.2749" lon="-2.48875">
        <ele>7.35</ele>
        <time>2017-03-30T13:22:29Z</time>
      </trkpt>
      <trkpt lat="47.27488" lon="-2.48861">
        <ele>8.31</ele>
        <time>2017-03-30T13:22:37Z</time>
      </trkpt>
      <trkpt lat="47.27488" lon="-2.48844">
        <ele>7.35</ele>
        <time>2017-03-30T13:22:46Z</time>
      </trkpt>
      <trkpt lat="47.27486" lon="-2.4883">
        <ele>9.27</ele>
        <time>2017-03-30T13:22:54Z</time>
      </trkpt>
      <trkpt lat="47.27485" lon="-2.48816">
        <ele>7.35</ele>
        <time>2017-03-30T13:23:02Z</time>
      </trkpt>
      <trkpt lat="47.27484" lon="-2.48799">
        <ele>6.39</ele>
        <time>2017-03-30T13:23:11Z</time>
      </trkpt>
      <trkpt lat="47.27485" lon="-2.48784">
        <ele>7.83</ele>
        <time>2017-03-30T13:23:20Z</time>
      </trkpt>
      <trkpt lat="47.27492" lon="-2.48774">
        <ele>11.67</ele>
        <time>2017-03-30T13:23:30Z</time>
      </trkpt>
      <trkpt lat="47.27503" lon="-2.48769">
        <ele>9.75</ele>
        <time>2017-03-30T13:23:41Z</time>
      </trkpt>
      <trkpt lat="47.27514" lon="-2.48761">
        <ele>9.75</ele>
        <time>2017-03-30T13:23:50Z</time>
      </trkpt>
      <trkpt lat="47.27521" lon="-2.48751">
        <ele>9.75</ele>
        <time>2017-03-30T13:23:59Z</time>
      </trkpt>
      <trkpt lat="47.27529" lon="-2.48741">
        <ele>10.23</ele>
        <time>2017-03-30T13:24:08Z</time>
      </trkpt>
      <trkpt lat="47.27536" lon="-2.48729">
        <ele>9.75</ele>
        <time>2017-03-30T13:24:16Z</time>
      </trkpt>
      <trkpt lat="47.27542" lon="-2.4872">
        <ele>9.75</ele>
        <time>2017-03-30T13:24:24Z</time>
      </trkpt>
      <trkpt lat="47.27549" lon="-2.48709">
        <ele>7.35</ele>
        <time>2017-03-30T13:24:33Z</time>
      </trkpt>
      <trkpt lat="47.27554" lon="-2.48697">
        <ele>11.19</ele>
        <time>2017-03-30T13:24:41Z</time>
      </trkpt>
      <trkpt lat="47.27561" lon="-2.48686">
        <ele>9.75</ele>
        <time>2017-03-30T13:24:49Z</time>
      </trkpt>
      <trkpt lat="47.27566" lon="-2.48674">
        <ele>8.79</ele>
        <time>2017-03-30T13:24:57Z</time>
      </trkpt>
      <trkpt lat="47.2757" lon="-2.48663">
        <ele>7.35</ele>
        <time>2017-03-30T13:25:06Z</time>
      </trkpt>
      <trkpt lat="47.27576" lon="-2.48649">
        <ele>8.31</ele>
        <time>2017-03-30T13:25:15Z</time>
      </trkpt>
      <trkpt lat="47.27581" lon="-2.48635">
        <ele>9.75</ele>
        <time>2017-03-30T13:25:24Z</time>
      </trkpt>
      <trkpt lat="47.27585" lon="-2.48622">
        <ele>9.75</ele>
        <time>2017-03-30T13:25:34Z</time>
      </trkpt>
      <trkpt lat="47.27588" lon="-2.48608">
        <ele>9.27</ele>
        <time>2017-03-30T13:25:54Z</time>
      </trkpt>
      <trkpt lat="47.27597" lon="-2.48601">
        <ele>10.23</ele>
        <time>2017-03-30T13:26:03Z</time>
      </trkpt>
      <trkpt lat="47.27602" lon="-2.48594">
        <ele>9.27</ele>
        <time>2017-03-30T13:26:13Z</time>
      </trkpt>
      <trkpt lat="47.2761" lon="-2.4858">
        <ele>9.75</ele>
        <time>2017-03-30T13:26:19Z</time>
      </trkpt>
      <trkpt lat="47.27614" lon="-2.48566">
        <ele>10.23</ele>
        <time>2017-03-30T13:26:27Z</time>
      </trkpt>
      <trkpt lat="47.27618" lon="-2.48553">
        <ele>9.75</ele>
        <time>2017-03-30T13:26:34Z</time>
      </trkpt>
      <trkpt lat="47.27623" lon="-2.4854">
        <ele>9.75</ele>
        <time>2017-03-30T13:26:42Z</time>
      </trkpt>
      <trkpt lat="47.27628" lon="-2.48527">
        <ele>9.27</ele>
        <time>2017-03-30T13:26:51Z</time>
      </trkpt>
      <trkpt lat="47.27633" lon="-2.48514">
        <ele>10.23</ele>
        <time>2017-03-30T13:26:59Z</time>
      </trkpt>
      <trkpt lat="47.27638" lon="-2.48501">
        <ele>9.27</ele>
        <time>2017-03-30T13:27:26Z</time>
      </trkpt>
      <trkpt lat="47.27644" lon="-2.4849">
        <ele>9.75</ele>
        <time>2017-03-30T13:27:34Z</time>
      </trkpt>
      <trkpt lat="47.27651" lon="-2.48476">
        <ele>10.23</ele>
        <time>2017-03-30T13:27:44Z</time>
      </trkpt>
      <trkpt lat="47.27655" lon="-2.48462">
        <ele>10.71</ele>
        <time>2017-03-30T13:27:55Z</time>
      </trkpt>
      <trkpt lat="47.27662" lon="-2.4845">
        <ele>10.71</ele>
        <time>2017-03-30T13:28:43Z</time>
      </trkpt>
      <trkpt lat="47.2767" lon="-2.48438">
        <ele>10.71</ele>
        <time>2017-03-30T13:28:54Z</time>
      </trkpt>
      <trkpt lat="47.27677" lon="-2.4843">
        <ele>10.71</ele>
        <time>2017-03-30T13:29:08Z</time>
      </trkpt>
      <trkpt lat="47.27683" lon="-2.48419">
        <ele>9.27</ele>
        <time>2017-03-30T13:29:18Z</time>
      </trkpt>
      <trkpt lat="47.27696" lon="-2.48397">
        <ele>12.63</ele>
        <time>2017-03-30T13:29:26Z</time>
      </trkpt>
      <trkpt lat="47.27698" lon="-2.484">
        <ele>12.63</ele>
        <time>2017-03-30T13:29:35Z</time>
      </trkpt>
      <trkpt lat="47.27692" lon="-2.48412">
        <ele>11.19</ele>
        <time>2017-03-30T13:29:43Z</time>
      </trkpt>
      <trkpt lat="47.27685" lon="-2.48423">
        <ele>12.15</ele>
        <time>2017-03-30T13:29:51Z</time>
      </trkpt>
      <trkpt lat="47.27678" lon="-2.48433">
        <ele>9.27</ele>
        <time>2017-03-30T13:29:59Z</time>
      </trkpt>
      <trkpt lat="47.27672" lon="-2.48445">
        <ele>12.63</ele>
        <time>2017-03-30T13:30:07Z</time>
      </trkpt>
      <trkpt lat="47.27668" lon="-2.48455">
        <ele>7.83</ele>
        <time>2017-03-30T13:30:15Z</time>
      </trkpt>
      <trkpt lat="47.2766" lon="-2.48466">
        <ele>9.27</ele>
        <time>2017-03-30T13:30:23Z</time>
      </trkpt>
      <trkpt lat="47.27655" lon="-2.48479">
        <ele>12.15</ele>
        <time>2017-03-30T13:30:31Z</time>
      </trkpt>
      <trkpt lat="47.2765" lon="-2.4849">
        <ele>11.19</ele>
        <time>2017-03-30T13:30:38Z</time>
      </trkpt>
      <trkpt lat="47.27644" lon="-2.48503">
        <ele>12.15</ele>
        <time>2017-03-30T13:30:46Z</time>
      </trkpt>
      <trkpt lat="47.27637" lon="-2.48516">
        <ele>9.27</ele>
        <time>2017-03-30T13:30:54Z</time>
      </trkpt>
      <trkpt lat="47.27633" lon="-2.48527">
        <ele>8.79</ele>
        <time>2017-03-30T13:31:01Z</time>
      </trkpt>
      <trkpt lat="47.27627" lon="-2.4854">
        <ele>7.83</ele>
        <time>2017-03-30T13:31:09Z</time>
      </trkpt>
      <trkpt lat="47.27621" lon="-2.48552">
        <ele>7.83</ele>
        <time>2017-03-30T13:31:17Z</time>
      </trkpt>
      <trkpt lat="47.27616" lon="-2.48565">
        <ele>10.23</ele>
        <time>2017-03-30T13:31:25Z</time>
      </trkpt>
      <trkpt lat="47.2761" lon="-2.48577">
        <ele>10.23</ele>
        <time>2017-03-30T13:31:33Z</time>
      </trkpt>
      <trkpt lat="47.27604" lon="-2.4859">
        <ele>6.87</ele>
        <time>2017-03-30T13:31:41Z</time>
      </trkpt>
      <trkpt lat="47.27599" lon="-2.48601">
        <ele>10.71</ele>
        <time>2017-03-30T13:31:48Z</time>
      </trkpt>
      <trkpt lat="47.27591" lon="-2.48601">
        <ele>12.15</ele>
        <time>2017-03-30T13:31:55Z</time>
      </trkpt>
      <trkpt lat="47.27589" lon="-2.48586">
        <ele>8.31</ele>
        <time>2017-03-30T13:32:02Z</time>
      </trkpt>
      <trkpt lat="47.27587" lon="-2.48571">
        <ele>9.75</ele>
        <time>2017-03-30T13:32:09Z</time>
      </trkpt>
      <trkpt lat="47.27586" lon="-2.48556">
        <ele>10.71</ele>
        <time>2017-03-30T13:32:17Z</time>
      </trkpt>
      <trkpt lat="47.27585" lon="-2.48542">
        <ele>12.15</ele>
        <time>2017-03-30T13:32:24Z</time>
      </trkpt>
      <trkpt lat="47.2758" lon="-2.4853">
        <ele>11.19</ele>
        <time>2017-03-30T13:32:31Z</time>
      </trkpt>
      <trkpt lat="47.27577" lon="-2.48517">
        <ele>10.23</ele>
        <time>2017-03-30T13:32:38Z</time>
      </trkpt>
      <trkpt lat="47.27576" lon="-2.48504">
        <ele>10.23</ele>
        <time>2017-03-30T13:32:45Z</time>
      </trkpt>
      <trkpt lat="47.27576" lon="-2.4849">
        <ele>9.27</ele>
        <time>2017-03-30T13:32:52Z</time>
      </trkpt>
      <trkpt lat="47.27573" lon="-2.48477">
        <ele>9.27</ele>
        <time>2017-03-30T13:33:00Z</time>
      </trkpt>
      <trkpt lat="47.2757" lon="-2.48462">
        <ele>12.15</ele>
        <time>2017-03-30T13:33:06Z</time>
      </trkpt>
      <trkpt lat="47.27568" lon="-2.48447">
        <ele>11.67</ele>
        <time>2017-03-30T13:33:13Z</time>
      </trkpt>
      <trkpt lat="47.27567" lon="-2.48432">
        <ele>12.63</ele>
        <time>2017-03-30T13:33:19Z</time>
      </trkpt>
      <trkpt lat="47.27566" lon="-2.48417">
        <ele>10.23</ele>
        <time>2017-03-30T13:33:26Z</time>
      </trkpt>
      <trkpt lat="47.27564" lon="-2.48402">
        <ele>10.23</ele>
        <time>2017-03-30T13:33:34Z</time>
      </trkpt>
      <trkpt lat="47.27561" lon="-2.48389">
        <ele>15.52</ele>
        <time>2017-03-30T13:33:41Z</time>
      </trkpt>
      <trkpt lat="47.27558" lon="-2.48374">
        <ele>13.6</ele>
        <time>2017-03-30T13:33:48Z</time>
      </trkpt>
      <trkpt lat="47.27554" lon="-2.48361">
        <ele>13.12</ele>
        <time>2017-03-30T13:33:55Z</time>
      </trkpt>
      <trkpt lat="47.27552" lon="-2.48347">
        <ele>11.19</ele>
        <time>2017-03-30T13:34:02Z</time>
      </trkpt>
      <trkpt lat="47.27549" lon="-2.48333">
        <ele>10.23</ele>
        <time>2017-03-30T13:34:09Z</time>
      </trkpt>
      <trkpt lat="47.27546" lon="-2.4832">
        <ele>13.6</ele>
        <time>2017-03-30T13:34:17Z</time>
      </trkpt>
      <trkpt lat="47.27541" lon="-2.48304">
        <ele>16</ele>
        <time>2017-03-30T13:34:25Z</time>
      </trkpt>
      <trkpt lat="47.27537" lon="-2.48289">
        <ele>11.19</ele>
        <time>2017-03-30T13:34:32Z</time>
      </trkpt>
      <trkpt lat="47.27534" lon="-2.48274">
        <ele>12.15</ele>
        <time>2017-03-30T13:34:39Z</time>
      </trkpt>
      <trkpt lat="47.27531" lon="-2.48259">
        <ele>15.04</ele>
        <time>2017-03-30T13:34:46Z</time>
      </trkpt>
      <trkpt lat="47.27528" lon="-2.48247">
        <ele>12.15</ele>
        <time>2017-03-30T13:34:53Z</time>
      </trkpt>
    </trkseg>
  </trk>
</gpx>